Observation data for Lake Alan Henry on 01/18/2019      Previous  Date  Next       Current Mesonet Observations  Soil Data  Daily Summary Page  Observations in Plain Language
KAHS 180600Z 22003KT 08/02 A3003 RMK A01 T00770022  RH  068%=      5-min Rain = 0
KAHS 180601Z 22003KT 08/02 A3003 RMK A01 T00770021  RH  068%=      5-min Rain = 0
KAHS 180602Z 23003KT 08/02 A3003 RMK A01 T00770021  RH  068%=      5-min Rain = 0
KAHS 180603Z 23004KT 08/02 A3003 RMK A01 T00770021  RH  068%=      5-min Rain = 0
KAHS 180604Z 23004KT 08/02 A3003 RMK A01 T00770021  RH  068%=      5-min Rain = 0
KAHS 180605Z 23003KT 08/02 A3003 RMK A01 T00770021  RH  068%=      5-min Rain = 0
KAHS 180606Z 24003KT 08/02 A3003 RMK A01 T00770021  RH  068%=      5-min Rain = 0
KAHS 180607Z 24003KT 08/02 A3003 RMK A01 T00760021  RH  068%=      5-min Rain = 0
KAHS 180608Z 24003KT 08/02 A3003 RMK A01 T00760021  RH  068%=      5-min Rain = 0
KAHS 180609Z 26002KT 08/02 A3002 RMK A01 T00770021  RH  068%=      5-min Rain = 0
KAHS 180610Z 26002KT 08/02 A3002 RMK A01 T00770021  RH  068%=      5-min Rain = 0
KAHS 180611Z 26003KT 08/02 A3002 RMK A01 T00770021  RH  068%=      5-min Rain = 0
KAHS 180612Z 26003KT 08/02 A3002 RMK A01 T00790022  RH  067%=      5-min Rain = 0
KAHS 180613Z 26003KT 08/02 A3002 RMK A01 T00800022  RH  067%=      5-min Rain = 0
KAHS 180614Z 26003KT 08/02 A3002 RMK A01 T00810022  RH  066%=      5-min Rain = 0
KAHS 180615Z 26003KT 08/02 A3002 RMK A01 T00820022  RH  066%=      5-min Rain = 0
KAHS 180616Z 26003KT 08/02 A3002 RMK A01 T00830022  RH  065%=      5-min Rain = 0
KAHS 180617Z 26004KT 08/02 A3002 RMK A01 T00840022  RH  065%=      5-min Rain = 0
KAHS 180618Z 26003KT 08/02 A3002 RMK A01 T00840021  RH  065%=      5-min Rain = 0
KAHS 180619Z 26004KT 08/02 A3002 RMK A01 T00830021  RH  065%=      5-min Rain = 0
KAHS 180620Z 25004KT 08/02 A3002 RMK A01 T00840021  RH  065%=      5-min Rain = 0
KAHS 180621Z 25004KT 08/02 A3002 RMK A01 T00840020  RH  064%=      5-min Rain = 0
KAHS 180622Z 25004KT 08/02 A3002 RMK A01 T00830020  RH  064%=      5-min Rain = 0
KAHS 180623Z 25004KT 08/02 A3002 RMK A01 T00830020  RH  064%=      5-min Rain = 0
KAHS 180624Z 26005KT 08/02 A3002 RMK A01 T00820020  RH  065%=      5-min Rain = 0
KAHS 180625Z 25005KT 08/02 A3002 RMK A01 T00810020  RH  065%=      5-min Rain = 0
KAHS 180626Z 25005KT 08/02 A3002 RMK A01 T00800019  RH  065%=      5-min Rain = 0
KAHS 180627Z 25005KT 08/02 A3001 RMK A01 T00780018  RH  066%=      5-min Rain = 0
KAHS 180628Z 25005KT 08/02 A3001 RMK A01 T00770018  RH  066%=      5-min Rain = 0
KAHS 180629Z 26005KT 08/02 A3001 RMK A01 T00750017  RH  067%=      5-min Rain = 0
KAHS 180630Z 26006KT 07/02 A3001 RMK A01 T00730017  RH  068%=      5-min Rain = 0
KAHS 180631Z 26006KT 07/02 A3001 RMK A01 T00710017  RH  068%=      5-min Rain = 0
KAHS 180632Z 25006KT 07/02 A3001 RMK A01 T00700017  RH  069%=      5-min Rain = 0
KAHS 180633Z 25006KT 07/02 A3001 RMK A01 T00700017  RH  069%=      5-min Rain = 0
KAHS 180634Z 24005KT 07/02 A3001 RMK A01 T00690018  RH  070%=      5-min Rain = 0
KAHS 180635Z 24004KT 07/02 A3001 RMK A01 T00670015  RH  069%=      5-min Rain = 0
KAHS 180636Z 24005KT 06/01 A3001 RMK A01 T00600006  RH  068%=      5-min Rain = 0
KAHS 180637Z 24005KT 05/00 A3001 RMK A01 T00530002  RH  070%=      5-min Rain = 0
KAHS 180638Z 25005KT 05/00 A3001 RMK A01 T00500004  RH  073%=      5-min Rain = 0
KAHS 180639Z 24004KT 05/01 A3001 RMK A01 T00480006  RH  074%=      5-min Rain = 0
KAHS 180640Z 23003KT 04/00 A3001 RMK A01 T00440003  RH  075%=      5-min Rain = 0
KAHS 180641Z 24004KT 04/00 A3001 RMK A01 T00410004  RH  077%=      5-min Rain = 0
KAHS 180642Z 25005KT 04/01 A3001 RMK A01 T00440011  RH  079%=      5-min Rain = 0
KAHS 180643Z 25004KT 05/02 A3001 RMK A01 T00470015  RH  080%=      5-min Rain = 0
KAHS 180644Z 25004KT 05/02 A3001 RMK A01 T00490016  RH  079%=      5-min Rain = 0
KAHS 180645Z 26004KT 05/02 A3001 RMK A01 T00510015  RH  078%=      5-min Rain = 0
KAHS 180646Z 26004KT 05/01 A3001 RMK A01 T00520014  RH  077%=      5-min Rain = 0
KAHS 180647Z 26005KT 05/01 A3001 RMK A01 T00520014  RH  076%=      5-min Rain = 0
KAHS 180648Z 26006KT 05/02 A3001 RMK A01 T00540015  RH  076%=      5-min Rain = 0
KAHS 180649Z 26005KT 06/02 A30 RMK A01 T00550015  RH  075%=      5-min Rain = 0
KAHS 180650Z 26006KT 06/02 A30 RMK A01 T00550015  RH  075%=      5-min Rain = 0
KAHS 180651Z 26006KT 06/02 A30 RMK A01 T00570016  RH  075%=      5-min Rain = 0
KAHS 180652Z 26006KT 06/02 A30 RMK A01 T00590016  RH  074%=      5-min Rain = 0
KAHS 180653Z 26006KT 06/02 A30 RMK A01 T00590015  RH  073%=      5-min Rain = 0
KAHS 180654Z 26007KT 06/01 A30 RMK A01 T00590014  RH  073%=      5-min Rain = 0
KAHS 180655Z 26007KT 06/02 A30 RMK A01 T00590015  RH  073%=      5-min Rain = 0
KAHS 180656Z 25007KT 06/02 A30 RMK A01 T00590015  RH  073%=      5-min Rain = 0
KAHS 180657Z 25006KT 06/02 A30 RMK A01 T00590016  RH  073%=      5-min Rain = 0
KAHS 180658Z 25006KT 06/01 A30 RMK A01 T00590014  RH  073%=      5-min Rain = 0
KAHS 180659Z 25007KT 06/01 A30 RMK A01 T00580014  RH  073%=      5-min Rain = 0
KAHS 180700Z 25007KT 06/02 A30 RMK A01 T00590016  RH  074%=      5-min Rain = 0
KAHS 180701Z 25007KT 06/02 A30 RMK A01 T00610017  RH  074%=      5-min Rain = 0
KAHS 180702Z 25007KT 06/02 A2999 RMK A01 T00640018  RH  072%=      5-min Rain = 0
KAHS 180703Z 25008KT 07/02 A2999 RMK A01 T00650018  RH  072%=      5-min Rain = 0
KAHS 180704Z 25007KT 07/02 A2999 RMK A01 T00670018  RH  071%=      5-min Rain = 0
KAHS 180705Z 25007KT 07/02 A2999 RMK A01 T00670018  RH  071%=      5-min Rain = 0
KAHS 180706Z 24007KT 07/02 A2999 RMK A01 T00680019  RH  071%=      5-min Rain = 0
KAHS 180707Z 24007KT 07/02 A30 RMK A01 T00690020  RH  071%=      5-min Rain = 0
KAHS 180708Z 25006KT 07/02 A30 RMK A01 T00700020  RH  070%=      5-min Rain = 0
KAHS 180709Z 25007KT 07/02 A30 RMK A01 T00710020  RH  070%=      5-min Rain = 0
KAHS 180710Z 25007KT 07/02 A30 RMK A01 T00720021  RH  070%=      5-min Rain = 0
KAHS 180711Z 25007KT 07/02 A30 RMK A01 T00730022  RH  070%=      5-min Rain = 0
KAHS 180712Z 25007KT 07/02 A30 RMK A01 T00740022  RH  070%=      5-min Rain = 0
KAHS 180713Z 25007KT 08/02 A30 RMK A01 T00750022  RH  069%=      5-min Rain = 0
KAHS 180714Z 25007KT 08/02 A2999 RMK A01 T00760022  RH  069%=      5-min Rain = 0
KAHS 180715Z 25008KT 08/02 A2999 RMK A01 T00760023  RH  069%=      5-min Rain = 0
KAHS 180716Z 25007KT 08/02 A2999 RMK A01 T00770023  RH  069%=      5-min Rain = 0
KAHS 180717Z 25008KT 08/02 A2999 RMK A01 T00770023  RH  069%=      5-min Rain = 0
KAHS 180718Z 25007KT 08/02 A2999 RMK A01 T00770023  RH  069%=      5-min Rain = 0
KAHS 180719Z 25007KT 08/02 A2999 RMK A01 T00770023  RH  069%=      5-min Rain = 0
KAHS 180720Z 25007KT 08/02 A2999 RMK A01 T00780024  RH  069%=      5-min Rain = 0
KAHS 180721Z 26008KT 08/02 A2999 RMK A01 T00780023  RH  068%=      5-min Rain = 0
KAHS 180722Z 25008KT 08/02 A2999 RMK A01 T00780023  RH  068%=      5-min Rain = 0
KAHS 180723Z 25008KT 08/02 A2999 RMK A01 T00780023  RH  068%=      5-min Rain = 0
KAHS 180724Z 25009KT 08/02 A2999 RMK A01 T00780024  RH  068%=      5-min Rain = 0
KAHS 180725Z 25009KT 08/02 A2999 RMK A01 T00790024  RH  068%=      5-min Rain = 0
KAHS 180726Z 25009KT 08/02 A2999 RMK A01 T00800024  RH  068%=      5-min Rain = 0
KAHS 180727Z 25009KT 08/02 A2999 RMK A01 T00800024  RH  068%=      5-min Rain = 0
KAHS 180728Z 25008KT 08/02 A2999 RMK A01 T00810024  RH  067%=      5-min Rain = 0
KAHS 180729Z 24008KT 08/02 A2998 RMK A01 T00800024  RH  068%=      5-min Rain = 0
KAHS 180730Z 25008KT 08/02 A2998 RMK A01 T00800024  RH  068%=      5-min Rain = 0
KAHS 180731Z 24008KT 08/02 A2998 RMK A01 T00800024  RH  068%=      5-min Rain = 0
KAHS 180732Z 24008KT 08/02 A2998 RMK A01 T00800024  RH  068%=      5-min Rain = 0
KAHS 180733Z 25008KT 08/02 A2998 RMK A01 T00800024  RH  068%=      5-min Rain = 0
KAHS 180734Z 25008KT 08/02 A2998 RMK A01 T00800024  RH  068%=      5-min Rain = 0
KAHS 180735Z 25008KT 08/02 A2998 RMK A01 T00800024  RH  068%=      5-min Rain = 0
KAHS 180736Z 25008KT 08/02 A2998 RMK A01 T00800024  RH  068%=      5-min Rain = 0
KAHS 180737Z 25007KT 08/02 A2998 RMK A01 T00800024  RH  068%=      5-min Rain = 0
KAHS 180738Z 25007KT 08/02 A2998 RMK A01 T00800024  RH  067%=      5-min Rain = 0
KAHS 180739Z 25008KT 08/02 A2998 RMK A01 T00800024  RH  068%=      5-min Rain = 0
KAHS 180740Z 25008KT 08/02 A2998 RMK A01 T00790024  RH  068%=      5-min Rain = 0
KAHS 180741Z 25007KT 08/02 A2998 RMK A01 T00790024  RH  068%=      5-min Rain = 0
KAHS 180742Z 25007KT 08/02 A2998 RMK A01 T00780023  RH  068%=      5-min Rain = 0
KAHS 180743Z 25007KT 08/02 A2998 RMK A01 T00780024  RH  068%=      5-min Rain = 0
KAHS 180744Z 25007KT 08/02 A2998 RMK A01 T00780024  RH  068%=      5-min Rain = 0
KAHS 180745Z 25007KT 08/02 A2998 RMK A01 T00780023  RH  068%=      5-min Rain = 0
KAHS 180746Z 25007KT 08/02 A2998 RMK A01 T00770023  RH  069%=      5-min Rain = 0
KAHS 180747Z 26006KT 08/02 A2997 RMK A01 T00770023  RH  069%=      5-min Rain = 0
KAHS 180748Z 26006KT 08/02 A2997 RMK A01 T00760023  RH  069%=      5-min Rain = 0
KAHS 180749Z 26006KT 08/02 A2997 RMK A01 T00760022  RH  069%=      5-min Rain = 0
KAHS 180750Z 26006KT 08/02 A2997 RMK A01 T00760022  RH  069%=      5-min Rain = 0
KAHS 180751Z 26006KT 08/02 A2997 RMK A01 T00760022  RH  069%=      5-min Rain = 0
KAHS 180752Z 27006KT 08/02 A2997 RMK A01 T00750022  RH  069%=      5-min Rain = 0
KAHS 180753Z 26007KT 08/02 A2997 RMK A01 T00750022  RH  069%=      5-min Rain = 0
KAHS 180754Z 27006KT 08/02 A2997 RMK A01 T00750023  RH  069%=      5-min Rain = 0
KAHS 180755Z 26007KT 08/02 A2997 RMK A01 T00750023  RH  069%=      5-min Rain = 0
KAHS 180756Z 26007KT 08/02 A2997 RMK A01 T00750023  RH  069%=      5-min Rain = 0
KAHS 180757Z 26007KT 08/02 A2997 RMK A01 T00750023  RH  069%=      5-min Rain = 0
KAHS 180758Z 26006KT 08/02 A2997 RMK A01 T00750023  RH  069%=      5-min Rain = 0
KAHS 180759Z 27006KT 08/02 A2997 RMK A01 T00750023  RH  069%=      5-min Rain = 0
KAHS 180800Z 27006KT 07/02 A2997 RMK A01 T00740022  RH  069%=      5-min Rain = 0
KAHS 180801Z 27007KT 07/02 A2997 RMK A01 T00730022  RH  070%=      5-min Rain = 0
KAHS 180802Z 27007KT 07/02 A2997 RMK A01 T00730023  RH  070%=      5-min Rain = 0
KAHS 180803Z 27007KT 07/02 A2997 RMK A01 T00720022  RH  071%=      5-min Rain = 0
KAHS 180804Z 27007KT 07/02 A2997 RMK A01 T00720023  RH  071%=      5-min Rain = 0
KAHS 180805Z 27007KT 07/02 A2997 RMK A01 T00720023  RH  071%=      5-min Rain = 0
KAHS 180806Z 27008KT 07/02 A2997 RMK A01 T00720023  RH  071%=      5-min Rain = 0
KAHS 180807Z 27008KT 07/02 A2997 RMK A01 T00710023  RH  071%=      5-min Rain = 0
KAHS 180808Z 27008KT 07/02 A2997 RMK A01 T00720024  RH  071%=      5-min Rain = 0
KAHS 180809Z 27008KT 07/02 A2997 RMK A01 T00720024  RH  071%=      5-min Rain = 0
KAHS 180810Z 27008KT 07/02 A2997 RMK A01 T00720024  RH  071%=      5-min Rain = 0
KAHS 180811Z 26008KT 07/02 A2997 RMK A01 T00720024  RH  071%=      5-min Rain = 0
KAHS 180812Z 26008KT 07/03 A2997 RMK A01 T00730025  RH  071%=      5-min Rain = 0
KAHS 180813Z 26008KT 07/03 A2997 RMK A01 T00740025  RH  071%=      5-min Rain = 0
KAHS 180814Z 26008KT 07/02 A2997 RMK A01 T00740024  RH  071%=      5-min Rain = 0
KAHS 180815Z 26008KT 07/02 A2997 RMK A01 T00740024  RH  071%=      5-min Rain = 0
KAHS 180816Z 26007KT 08/02 A2997 RMK A01 T00750024  RH  070%=      5-min Rain = 0
KAHS 180817Z 26007KT 07/02 A2997 RMK A01 T00740024  RH  070%=      5-min Rain = 0
KAHS 180818Z 26007KT 08/02 A2997 RMK A01 T00750024  RH  070%=      5-min Rain = 0
KAHS 180819Z 26007KT 08/02 A2997 RMK A01 T00750024  RH  070%=      5-min Rain = 0
KAHS 180820Z 26007KT 08/02 A2997 RMK A01 T00750024  RH  070%=      5-min Rain = 0
KAHS 180821Z 26007KT 07/02 A2997 RMK A01 T00740024  RH  070%=      5-min Rain = 0
KAHS 180822Z 26007KT 07/02 A2997 RMK A01 T00740024  RH  070%=      5-min Rain = 0
KAHS 180823Z 26007KT 07/02 A2997 RMK A01 T00740024  RH  070%=      5-min Rain = 0
KAHS 180824Z 26006KT 08/02 A2997 RMK A01 T00750024  RH  070%=      5-min Rain = 0
KAHS 180825Z 26006KT 07/02 A2996 RMK A01 T00740023  RH  070%=      5-min Rain = 0
KAHS 180826Z 26006KT 08/02 A2996 RMK A01 T00750024  RH  070%=      5-min Rain = 0
KAHS 180827Z 26006KT 08/02 A2996 RMK A01 T00750023  RH  070%=      5-min Rain = 0
KAHS 180828Z 26006KT 08/02 A2996 RMK A01 T00750024  RH  070%=      5-min Rain = 0
KAHS 180829Z 26006KT 08/02 A2996 RMK A01 T00750024  RH  070%=      5-min Rain = 0
KAHS 180830Z 26006KT 08/02 A2996 RMK A01 T00750024  RH  070%=      5-min Rain = 0
KAHS 180831Z 26006KT 08/02 A2996 RMK A01 T00750023  RH  070%=      5-min Rain = 0
KAHS 180832Z 26006KT 08/02 A2996 RMK A01 T00750023  RH  070%=      5-min Rain = 0
KAHS 180833Z 26006KT 08/02 A2996 RMK A01 T00750023  RH  070%=      5-min Rain = 0
KAHS 180834Z 26006KT 08/02 A2996 RMK A01 T00750023  RH  070%=      5-min Rain = 0
KAHS 180835Z 26006KT 08/02 A2996 RMK A01 T00750023  RH  070%=      5-min Rain = 0
KAHS 180836Z 26006KT 07/02 A2996 RMK A01 T00740023  RH  070%=      5-min Rain = 0
KAHS 180837Z 26006KT 07/02 A2996 RMK A01 T00740023  RH  070%=      5-min Rain = 0
KAHS 180838Z 26006KT 08/02 A2996 RMK A01 T00750023  RH  070%=      5-min Rain = 0
KAHS 180839Z 25006KT 08/02 A2996 RMK A01 T00750023  RH  070%=      5-min Rain = 0
KAHS 180840Z 25006KT 07/02 A2996 RMK A01 T00740023  RH  070%=      5-min Rain = 0
KAHS 180841Z 24005KT 07/02 A2996 RMK A01 T00740023  RH  070%=      5-min Rain = 0
KAHS 180842Z 24005KT 07/02 A2996 RMK A01 T00740023  RH  070%=      5-min Rain = 0
KAHS 180843Z 24005KT 07/02 A2996 RMK A01 T00740023  RH  070%=      5-min Rain = 0
KAHS 180844Z 23005KT 07/02 A2996 RMK A01 T00740023  RH  070%=      5-min Rain = 0
KAHS 180845Z 23005KT 08/02 A2996 RMK A01 T00750023  RH  070%=      5-min Rain = 0
KAHS 180846Z 23005KT 08/02 A2996 RMK A01 T00750023  RH  070%=      5-min Rain = 0
KAHS 180847Z 23005KT 07/02 A2996 RMK A01 T00740022  RH  070%=      5-min Rain = 0
KAHS 180848Z 23005KT 07/02 A2995 RMK A01 T00740022  RH  070%=      5-min Rain = 0
KAHS 180849Z 23005KT 07/02 A2995 RMK A01 T00730022  RH  070%=      5-min Rain = 0
KAHS 180850Z 22006KT 07/02 A2995 RMK A01 T00730022  RH  070%=      5-min Rain = 0
KAHS 180851Z 21006KT 07/02 A2995 RMK A01 T00740023  RH  070%=      5-min Rain = 0
KAHS 180852Z 21006KT 08/02 A2995 RMK A01 T00750023  RH  070%=      5-min Rain = 0
KAHS 180853Z 21007KT 08/02 A2995 RMK A01 T00760024  RH  069%=      5-min Rain = 0
KAHS 180854Z 21006KT 08/02 A2995 RMK A01 T00770024  RH  069%=      5-min Rain = 0
KAHS 180855Z 20006KT 08/02 A2995 RMK A01 T00780023  RH  068%=      5-min Rain = 0
KAHS 180856Z 20006KT 08/02 A2995 RMK A01 T00770023  RH  068%=      5-min Rain = 0
KAHS 180857Z 20006KT 08/02 A2995 RMK A01 T00770023  RH  069%=      5-min Rain = 0
KAHS 180858Z 20007KT 08/02 A2995 RMK A01 T00760023  RH  069%=      5-min Rain = 0
KAHS 180859Z 20007KT 08/02 A2995 RMK A01 T00760023  RH  069%=      5-min Rain = 0
KAHS 180900Z 20006KT 08/02 A2995 RMK A01 T00770023  RH  069%=      5-min Rain = 0
KAHS 180901Z 20007KT 08/02 A2995 RMK A01 T00780024  RH  069%=      5-min Rain = 0
KAHS 180902Z 20007KT 08/02 A2995 RMK A01 T00790024  RH  068%=      5-min Rain = 0
KAHS 180903Z 20007KT 08/02 A2995 RMK A01 T00800024  RH  068%=      5-min Rain = 0
KAHS 180904Z 20007KT 08/02 A2995 RMK A01 T00810024  RH  068%=      5-min Rain = 0
KAHS 180905Z 20007KT 08/02 A2995 RMK A01 T00810024  RH  067%=      5-min Rain = 0
KAHS 180906Z 20007KT 08/03 A2995 RMK A01 T00810025  RH  067%=      5-min Rain = 0
KAHS 180907Z 20007KT 08/02 A2995 RMK A01 T00820024  RH  067%=      5-min Rain = 0
KAHS 180908Z 20007KT 08/02 A2995 RMK A01 T00820024  RH  067%=      5-min Rain = 0
KAHS 180909Z 20007KT 08/03 A2995 RMK A01 T00820025  RH  067%=      5-min Rain = 0
KAHS 180910Z 21006KT 08/03 A2995 RMK A01 T00830025  RH  067%=      5-min Rain = 0
KAHS 180911Z 21006KT 08/03 A2995 RMK A01 T00830025  RH  067%=      5-min Rain = 0
KAHS 180912Z 21005KT 08/03 A2995 RMK A01 T00830025  RH  067%=      5-min Rain = 0
KAHS 180913Z 22005KT 08/03 A2995 RMK A01 T00830025  RH  067%=      5-min Rain = 0
KAHS 180914Z 22006KT 08/03 A2995 RMK A01 T00830025  RH  067%=      5-min Rain = 0
KAHS 180915Z 22005KT 08/03 A2995 RMK A01 T00820025  RH  067%=      5-min Rain = 0
KAHS 180916Z 22005KT 08/03 A2995 RMK A01 T00810025  RH  067%=      5-min Rain = 0
KAHS 180917Z 22005KT 08/03 A2995 RMK A01 T00810025  RH  068%=      5-min Rain = 0
KAHS 180918Z 22005KT 08/03 A2995 RMK A01 T00810025  RH  068%=      5-min Rain = 0
KAHS 180919Z 22006KT 08/03 A2995 RMK A01 T00820027  RH  068%=      5-min Rain = 0
KAHS 180920Z 22005KT 08/03 A2994 RMK A01 T00820026  RH  068%=      5-min Rain = 0
KAHS 180921Z 22006KT 08/03 A2994 RMK A01 T00820026  RH  068%=      5-min Rain = 0
KAHS 180922Z 22006KT 08/03 A2994 RMK A01 T00830027  RH  068%=      5-min Rain = 0
KAHS 180923Z 23007KT 08/03 A2994 RMK A01 T00840028  RH  068%=      5-min Rain = 0
KAHS 180924Z 23006KT 08/03 A2994 RMK A01 T00840028  RH  068%=      5-min Rain = 0
KAHS 180925Z 22007KT 08/03 A2994 RMK A01 T00840029  RH  068%=      5-min Rain = 0
KAHS 180926Z 22007KT 09/03 A2994 RMK A01 T00870032  RH  068%=      5-min Rain = 0
KAHS 180927Z 22007KT 09/03 A2994 RMK A01 T00900033  RH  067%=      5-min Rain = 0
KAHS 180928Z 22007KT 09/03 A2994 RMK A01 T00920033  RH  067%=      5-min Rain = 0
KAHS 180929Z 23007KT 09/03 A2994 RMK A01 T00930033  RH  066%=      5-min Rain = 0
KAHS 180930Z 23007KT 09/03 A2994 RMK A01 T00930033  RH  066%=      5-min Rain = 0
KAHS 180931Z 23006KT 09/03 A2994 RMK A01 T00930033  RH  066%=      5-min Rain = 0
KAHS 180932Z 23007KT 09/03 A2994 RMK A01 T00930033  RH  066%=      5-min Rain = 0
KAHS 180933Z 24005KT 09/03 A2994 RMK A01 T00930033  RH  066%=      5-min Rain = 0
KAHS 180934Z 24005KT 09/03 A2994 RMK A01 T00920032  RH  066%=      5-min Rain = 0
KAHS 180935Z 25005KT 09/03 A2994 RMK A01 T00910032  RH  067%=      5-min Rain = 0
KAHS 180936Z 25006KT 09/03 A2994 RMK A01 T00890031  RH  067%=      5-min Rain = 0
KAHS 180937Z 24006KT 09/03 A2994 RMK A01 T00890031  RH  067%=      5-min Rain = 0
KAHS 180938Z 24006KT 09/03 A2994 RMK A01 T00890031  RH  067%=      5-min Rain = 0
KAHS 180939Z 25006KT 09/03 A2994 RMK A01 T00890031  RH  067%=      5-min Rain = 0
KAHS 180940Z 24006KT 09/03 A2994 RMK A01 T00880031  RH  067%=      5-min Rain = 0
KAHS 180941Z 24006KT 09/03 A2994 RMK A01 T00890032  RH  068%=      5-min Rain = 0
KAHS 180942Z 24006KT 09/03 A2994 RMK A01 T00890032  RH  067%=      5-min Rain = 0
KAHS 180943Z 23006KT 09/03 A2994 RMK A01 T00890033  RH  067%=      5-min Rain = 0
KAHS 180944Z 23007KT 09/03 A2993 RMK A01 T00910034  RH  067%=      5-min Rain = 0
KAHS 180945Z 23006KT 09/03 A2993 RMK A01 T00920034  RH  067%=      5-min Rain = 0
KAHS 180946Z 23005KT 09/03 A2993 RMK A01 T00920033  RH  067%=      5-min Rain = 0
KAHS 180947Z 23005KT 09/03 A2993 RMK A01 T00920034  RH  067%=      5-min Rain = 0
KAHS 180948Z 23005KT 09/03 A2993 RMK A01 T00910033  RH  067%=      5-min Rain = 0
KAHS 180949Z 23004KT 09/03 A2993 RMK A01 T00900033  RH  067%=      5-min Rain = 0
KAHS 180950Z 23006KT 09/03 A2993 RMK A01 T00890033  RH  068%=      5-min Rain = 0
KAHS 180951Z 24005KT 09/03 A2993 RMK A01 T00890033  RH  068%=      5-min Rain = 0
KAHS 180952Z 23005KT 09/03 A2993 RMK A01 T00880032  RH  068%=      5-min Rain = 0
KAHS 180953Z 23006KT 09/03 A2993 RMK A01 T00880033  RH  068%=      5-min Rain = 0
KAHS 180954Z 22005KT 09/03 A2993 RMK A01 T00890033  RH  068%=      5-min Rain = 0
KAHS 180955Z 23006KT 09/03 A2993 RMK A01 T00900033  RH  068%=      5-min Rain = 0
KAHS 180956Z 23006KT 09/03 A2993 RMK A01 T00920034  RH  067%=      5-min Rain = 0
KAHS 180957Z 23005KT 09/03 A2993 RMK A01 T00930034  RH  067%=      5-min Rain = 0
KAHS 180958Z 22006KT 09/03 A2993 RMK A01 T00920033  RH  067%=      5-min Rain = 0
KAHS 180959Z 22006KT 09/03 A2993 RMK A01 T00920034  RH  067%=      5-min Rain = 0
KAHS 181000Z 22006KT 09/03 A2993 RMK A01 T00930034  RH  067%=      5-min Rain = 0
KAHS 181001Z 22006KT 09/04 A2993 RMK A01 T00940035  RH  067%=      5-min Rain = 0
KAHS 181002Z 22006KT 09/03 A2993 RMK A01 T00940034  RH  066%=      5-min Rain = 0
KAHS 181003Z 23006KT 10/04 A2993 RMK A01 T00960035  RH  066%=      5-min Rain = 0
KAHS 181004Z 23006KT 10/03 A2993 RMK A01 T00950034  RH  065%=      5-min Rain = 0
KAHS 181005Z 23005KT 09/03 A2993 RMK A01 T00940034  RH  066%=      5-min Rain = 0
KAHS 181006Z 23005KT 09/03 A2993 RMK A01 T00940034  RH  066%=      5-min Rain = 0
KAHS 181007Z 22006KT 09/03 A2993 RMK A01 T00940034  RH  066%=      5-min Rain = 0
KAHS 181008Z 22006KT 09/03 A2993 RMK A01 T00940034  RH  066%=      5-min Rain = 0
KAHS 181009Z 22007KT 10/04 A2993 RMK A01 T00950035  RH  066%=      5-min Rain = 0
KAHS 181010Z 22007KT 10/04 A2993 RMK A01 T00970035  RH  065%=      5-min Rain = 0
KAHS 181011Z 22007KT 10/04 A2992 RMK A01 T00970035  RH  065%=      5-min Rain = 0
KAHS 181012Z 22007KT 10/04 A2992 RMK A01 T00980035  RH  065%=      5-min Rain = 0
KAHS 181013Z 21007KT 10/04 A2992 RMK A01 T00980035  RH  065%=      5-min Rain = 0
KAHS 181014Z 22008KT 10/04 A2992 RMK A01 T00980036  RH  065%=      5-min Rain = 0
KAHS 181015Z 21007KT 10/04 A2991 RMK A01 T00980036  RH  065%=      5-min Rain = 0
KAHS 181016Z 21008KT 10/04 A2991 RMK A01 T00980036  RH  065%=      5-min Rain = 0
KAHS 181017Z 21009KT 10/04 A2991 RMK A01 T01000037  RH  065%=      5-min Rain = 0
KAHS 181018Z 21009KT 10/04 A2991 RMK A01 T01010037  RH  064%=      5-min Rain = 0
KAHS 181019Z 21008KT 10/04 A2991 RMK A01 T01010037  RH  064%=      5-min Rain = 0
KAHS 181020Z 21009KT 10/04 A2991 RMK A01 T01010037  RH  064%=      5-min Rain = 0
KAHS 181021Z 21008KT 10/04 A2991 RMK A01 T01010037  RH  064%=      5-min Rain = 0
KAHS 181022Z 20009KT 10/04 A2991 RMK A01 T01010037  RH  064%=      5-min Rain = 0
KAHS 181023Z 21008KT 10/04 A299 RMK A01 T01020037  RH  064%=      5-min Rain = 0
KAHS 181024Z 21009KT 10/04 A299 RMK A01 T01020037  RH  064%=      5-min Rain = 0
KAHS 181025Z 21009KT 10/04 A299 RMK A01 T01020037  RH  064%=      5-min Rain = 0
KAHS 181026Z 20012KT 10/04 A299 RMK A01 T01030038  RH  064%=      5-min Rain = 0
KAHS 181027Z 20012G17KT 11/04 A299 RMK A01 T01050039  RH  063%=      5-min Rain = 0
KAHS 181028Z 21010KT 11/04 A299 RMK A01 T01070039  RH  062%=      5-min Rain = 0
KAHS 181029Z 21012KT 11/04 A299 RMK A01 T01080039  RH  062%=      5-min Rain = 0
KAHS 181030Z 21012G17KT 11/04 A299 RMK A01 T01090038  RH  061%=      5-min Rain = 0
KAHS 181031Z 21011KT 11/04 A299 RMK A01 T01100038  RH  061%=      5-min Rain = 0
KAHS 181032Z 22012KT 11/04 A299 RMK A01 T01100038  RH  061%=      5-min Rain = 0
KAHS 181033Z 22013KT 11/04 A299 RMK A01 T01110038  RH  061%=      5-min Rain = 0
KAHS 181034Z 21011KT 11/04 A299 RMK A01 T01110038  RH  061%=      5-min Rain = 0
KAHS 181035Z 22012KT 11/04 A299 RMK A01 T01100038  RH  061%=      5-min Rain = 0
KAHS 181036Z 22012KT 11/04 A299 RMK A01 T01110038  RH  061%=      5-min Rain = 0
KAHS 181037Z 22011KT 11/04 A299 RMK A01 T01110038  RH  061%=      5-min Rain = 0
KAHS 181038Z 22013G19KT 11/04 A299 RMK A01 T01110038  RH  061%=      5-min Rain = 0
KAHS 181039Z 23015KT 11/04 A299 RMK A01 T01120039  RH  061%=      5-min Rain = 0
KAHS 181040Z 22012KT 11/04 A299 RMK A01 T01130039  RH  060%=      5-min Rain = 0
KAHS 181041Z 23012KT 11/04 A299 RMK A01 T01120039  RH  060%=      5-min Rain = 0
KAHS 181042Z 23013KT 11/04 A299 RMK A01 T01120039  RH  061%=      5-min Rain = 0
KAHS 181043Z 23010KT 11/04 A299 RMK A01 T01110039  RH  061%=      5-min Rain = 0
KAHS 181044Z 23010KT 11/04 A299 RMK A01 T01100039  RH  062%=      5-min Rain = 0
KAHS 181045Z 23011KT 11/04 A299 RMK A01 T01090039  RH  062%=      5-min Rain = 0
KAHS 181046Z 23011KT 11/04 A299 RMK A01 T01090039  RH  062%=      5-min Rain = 0
KAHS 181047Z 23011KT 11/04 A299 RMK A01 T01080039  RH  062%=      5-min Rain = 0
KAHS 181048Z 23011KT 11/04 A299 RMK A01 T01080038  RH  062%=      5-min Rain = 0
KAHS 181049Z 23013KT 11/04 A299 RMK A01 T01080039  RH  062%=      5-min Rain = 0
KAHS 181050Z 23014KT 11/04 A299 RMK A01 T01090038  RH  062%=      5-min Rain = 0
KAHS 181051Z 23015KT 11/04 A2989 RMK A01 T01100038  RH  061%=      5-min Rain = 0
KAHS 181052Z 23015KT 11/04 A2989 RMK A01 T01110038  RH  061%=      5-min Rain = 0
KAHS 181053Z 23014KT 11/04 A2989 RMK A01 T01110038  RH  061%=      5-min Rain = 0
KAHS 181054Z 23017KT 11/04 A2989 RMK A01 T01110038  RH  061%=      5-min Rain = 0
KAHS 181055Z 23012KT 11/04 A2989 RMK A01 T01120038  RH  060%=      5-min Rain = 0
KAHS 181056Z 23013KT 11/04 A2989 RMK A01 T01110038  RH  061%=      5-min Rain = 0
KAHS 181057Z 23014KT 11/04 A2989 RMK A01 T01100039  RH  061%=      5-min Rain = 0
KAHS 181058Z 23014KT 11/04 A2989 RMK A01 T01100038  RH  061%=      5-min Rain = 0
KAHS 181059Z 23012KT 11/04 A2989 RMK A01 T01100039  RH  061%=      5-min Rain = 0
KAHS 181100Z 23012KT 11/04 A2989 RMK A01 T01100039  RH  061%=      5-min Rain = 0
KAHS 181101Z 23012KT 11/04 A2989 RMK A01 T01100039  RH  062%=      5-min Rain = 0
KAHS 181102Z 23012KT 11/04 A2989 RMK A01 T01090039  RH  062%=      5-min Rain = 0
KAHS 181103Z 22011KT 11/04 A2989 RMK A01 T01090039  RH  062%=      5-min Rain = 0
KAHS 181104Z 23010KT 11/04 A2989 RMK A01 T01090039  RH  062%=      5-min Rain = 0
KAHS 181105Z 23012KT 11/04 A2989 RMK A01 T01090040  RH  062%=      5-min Rain = 0
KAHS 181106Z 22009KT 11/04 A2989 RMK A01 T01090039  RH  062%=      5-min Rain = 0
KAHS 181107Z 23009KT 11/04 A2989 RMK A01 T01070039  RH  063%=      5-min Rain = 0
KAHS 181108Z 23010KT 11/04 A2988 RMK A01 T01050039  RH  063%=      5-min Rain = 0
KAHS 181109Z 23010KT 10/04 A2988 RMK A01 T01040039  RH  064%=      5-min Rain = 0
KAHS 181110Z 23008KT 10/04 A2988 RMK A01 T01040039  RH  064%=      5-min Rain = 0
KAHS 181111Z 23010KT 10/04 A2988 RMK A01 T01020038  RH  064%=      5-min Rain = 0
KAHS 181112Z 23009KT 10/04 A2988 RMK A01 T01020038  RH  064%=      5-min Rain = 0
KAHS 181113Z 24011KT 10/04 A2988 RMK A01 T01020038  RH  065%=      5-min Rain = 0
KAHS 181114Z 24009KT 10/04 A2988 RMK A01 T01020038  RH  065%=      5-min Rain = 0
KAHS 181115Z 24009KT 10/04 A2988 RMK A01 T01000038  RH  065%=      5-min Rain = 0
KAHS 181116Z 23008KT 10/04 A2988 RMK A01 T00990038  RH  065%=      5-min Rain = 0
KAHS 181117Z 24009KT 10/04 A2988 RMK A01 T00990038  RH  066%=      5-min Rain = 0
KAHS 181118Z 23009KT 10/04 A2988 RMK A01 T00980037  RH  066%=      5-min Rain = 0
KAHS 181119Z 24008KT 10/04 A2988 RMK A01 T00980037  RH  066%=      5-min Rain = 0
KAHS 181120Z 23008KT 10/04 A2988 RMK A01 T00970037  RH  066%=      5-min Rain = 0
KAHS 181121Z 24009KT 10/04 A2987 RMK A01 T00970038  RH  067%=      5-min Rain = 0
KAHS 181122Z 23009KT 10/04 A2987 RMK A01 T00970038  RH  067%=      5-min Rain = 0
KAHS 181123Z 24009KT 10/04 A2987 RMK A01 T00970038  RH  067%=      5-min Rain = 0
KAHS 181124Z 24010KT 10/04 A2988 RMK A01 T00970038  RH  067%=      5-min Rain = 0
KAHS 181125Z 24009KT 10/04 A2988 RMK A01 T00970038  RH  067%=      5-min Rain = 0
KAHS 181126Z 24009KT 10/04 A2988 RMK A01 T00970038  RH  067%=      5-min Rain = 0
KAHS 181127Z 24010KT 10/04 A2988 RMK A01 T00960038  RH  067%=      5-min Rain = 0
KAHS 181128Z 24009KT 10/04 A2988 RMK A01 T00960038  RH  067%=      5-min Rain = 0
KAHS 181129Z 24010KT 10/04 A2988 RMK A01 T00950038  RH  067%=      5-min Rain = 0
KAHS 181130Z 24011KT 10/04 A2988 RMK A01 T00960038  RH  067%=      5-min Rain = 0
KAHS 181131Z 23009KT 10/04 A2987 RMK A01 T00960037  RH  067%=      5-min Rain = 0
KAHS 181132Z 24009KT 10/04 A2987 RMK A01 T00950037  RH  067%=      5-min Rain = 0
KAHS 181133Z 23009KT 09/04 A2987 RMK A01 T00940037  RH  067%=      5-min Rain = 0
KAHS 181134Z 24010KT 09/04 A2987 RMK A01 T00940037  RH  068%=      5-min Rain = 0
KAHS 181135Z 23010KT 09/04 A2987 RMK A01 T00940038  RH  068%=      5-min Rain = 0
KAHS 181136Z 23009KT 09/04 A2987 RMK A01 T00940038  RH  068%=      5-min Rain = 0
KAHS 181137Z 23010KT 09/04 A2987 RMK A01 T00940038  RH  068%=      5-min Rain = 0
KAHS 181138Z 23011KT 09/04 A2987 RMK A01 T00940038  RH  068%=      5-min Rain = 0
KAHS 181139Z 23009KT 09/04 A2987 RMK A01 T00940038  RH  068%=      5-min Rain = 0
KAHS 181140Z 23009KT 09/04 A2987 RMK A01 T00930038  RH  068%=      5-min Rain = 0
KAHS 181141Z 23010KT 09/04 A2987 RMK A01 T00930038  RH  068%=      5-min Rain = 0
KAHS 181142Z 23010KT 09/04 A2987 RMK A01 T00940038  RH  068%=      5-min Rain = 0
KAHS 181143Z 23009KT 09/04 A2987 RMK A01 T00940038  RH  068%=      5-min Rain = 0
KAHS 181144Z 23009KT 09/04 A2987 RMK A01 T00940038  RH  068%=      5-min Rain = 0
KAHS 181145Z 23010KT 09/04 A2986 RMK A01 T00940038  RH  068%=      5-min Rain = 0
KAHS 181146Z 23010KT 09/04 A2986 RMK A01 T00940038  RH  068%=      5-min Rain = 0
KAHS 181147Z 23010KT 09/04 A2986 RMK A01 T00940038  RH  068%=      5-min Rain = 0
KAHS 181148Z 23010KT 09/04 A2986 RMK A01 T00940038  RH  068%=      5-min Rain = 0
KAHS 181149Z 23010KT 09/04 A2986 RMK A01 T00940038  RH  068%=      5-min Rain = 0
KAHS 181150Z 23009KT 09/04 A2986 RMK A01 T00940038  RH  068%=      5-min Rain = 0
KAHS 181151Z 23009KT 09/04 A2986 RMK A01 T00940038  RH  068%=      5-min Rain = 0
KAHS 181152Z 23010KT 09/04 A2986 RMK A01 T00940038  RH  068%=      5-min Rain = 0
KAHS 181153Z 23009KT 09/04 A2986 RMK A01 T00940039  RH  068%=      5-min Rain = 0
KAHS 181154Z 23009KT 09/04 A2986 RMK A01 T00940038  RH  068%=      5-min Rain = 0
KAHS 181155Z 23008KT 09/04 A2986 RMK A01 T00930038  RH  069%=      5-min Rain = 0
KAHS 181156Z 23009KT 09/04 A2986 RMK A01 T00920039  RH  069%=      5-min Rain = 0
KAHS 181157Z 23009KT 09/04 A2986 RMK A01 T00920039  RH  069%=      5-min Rain = 0
KAHS 181158Z 23008KT 09/04 A2986 RMK A01 T00920038  RH  069%=      5-min Rain = 0
KAHS 181159Z 23008KT 09/04 A2986 RMK A01 T00910038  RH  069%=      5-min Rain = 0
KAHS 181200Z 23008KT 09/04 A2986 RMK A01 T00910038  RH  070%=      5-min Rain = 0
KAHS 181201Z 23009KT 09/04 A2986 RMK A01 T00910039  RH  070%=      5-min Rain = 0
KAHS 181202Z 23008KT 09/04 A2986 RMK A01 T00910038  RH  070%=      5-min Rain = 0
KAHS 181203Z 23009KT 09/04 A2986 RMK A01 T00910038  RH  070%=      5-min Rain = 0
KAHS 181204Z 23009KT 09/04 A2985 RMK A01 T00910039  RH  069%=      5-min Rain = 0
KAHS 181205Z 23009KT 09/04 A2985 RMK A01 T00910039  RH  069%=      5-min Rain = 0
KAHS 181206Z 23008KT 09/04 A2985 RMK A01 T00910039  RH  069%=      5-min Rain = 0
KAHS 181207Z 23009KT 09/04 A2985 RMK A01 T00910038  RH  070%=      5-min Rain = 0
KAHS 181208Z 23010KT 09/04 A2985 RMK A01 T00910039  RH  070%=      5-min Rain = 0
KAHS 181209Z 23009KT 09/04 A2985 RMK A01 T00910039  RH  070%=      5-min Rain = 0
KAHS 181210Z 23010KT 09/04 A2985 RMK A01 T00910039  RH  070%=      5-min Rain = 0
KAHS 181211Z 23009KT 09/04 A2985 RMK A01 T00920039  RH  069%=      5-min Rain = 0
KAHS 181212Z 23008KT 09/04 A2985 RMK A01 T00920039  RH  069%=      5-min Rain = 0
KAHS 181213Z 23009KT 09/04 A2985 RMK A01 T00910038  RH  070%=      5-min Rain = 0
KAHS 181214Z 23009KT 09/04 A2985 RMK A01 T00910039  RH  070%=      5-min Rain = 0
KAHS 181215Z 23007KT 09/04 A2985 RMK A01 T00910038  RH  070%=      5-min Rain = 0
KAHS 181216Z 23008KT 09/04 A2985 RMK A01 T00900039  RH  070%=      5-min Rain = 0
KAHS 181217Z 23008KT 09/04 A2985 RMK A01 T00900039  RH  070%=      5-min Rain = 0
KAHS 181218Z 24008KT 09/04 A2985 RMK A01 T00890038  RH  070%=      5-min Rain = 0
KAHS 181219Z 24007KT 09/04 A2985 RMK A01 T00890039  RH  071%=      5-min Rain = 0
KAHS 181220Z 24007KT 09/04 A2985 RMK A01 T00890039  RH  071%=      5-min Rain = 0
KAHS 181221Z 24008KT 09/04 A2985 RMK A01 T00880038  RH  071%=      5-min Rain = 0
KAHS 181222Z 23007KT 09/04 A2985 RMK A01 T00880038  RH  071%=      5-min Rain = 0
KAHS 181223Z 23007KT 09/04 A2985 RMK A01 T00880038  RH  071%=      5-min Rain = 0
KAHS 181224Z 23007KT 09/04 A2985 RMK A01 T00880038  RH  071%=      5-min Rain = 0
KAHS 181225Z 23008KT 09/04 A2985 RMK A01 T00880038  RH  071%=      5-min Rain = 0
KAHS 181226Z 23008KT 09/04 A2985 RMK A01 T00880039  RH  071%=      5-min Rain = 0
KAHS 181227Z 23007KT 09/04 A2985 RMK A01 T00880038  RH  071%=      5-min Rain = 0
KAHS 181228Z 23007KT 09/04 A2985 RMK A01 T00880038  RH  071%=      5-min Rain = 0
KAHS 181229Z 23007KT 09/04 A2985 RMK A01 T00880039  RH  071%=      5-min Rain = 0
KAHS 181230Z 23008KT 09/04 A2985 RMK A01 T00880039  RH  071%=      5-min Rain = 0
KAHS 181231Z 23008KT 09/04 A2985 RMK A01 T00880039  RH  071%=      5-min Rain = 0
KAHS 181232Z 23008KT 09/04 A2985 RMK A01 T00890039  RH  071%=      5-min Rain = 0
KAHS 181233Z 23008KT 09/04 A2984 RMK A01 T00890039  RH  071%=      5-min Rain = 0
KAHS 181234Z 23008KT 09/04 A2984 RMK A01 T00890039  RH  071%=      5-min Rain = 0
KAHS 181235Z 23008KT 09/04 A2984 RMK A01 T00890039  RH  071%=      5-min Rain = 0
KAHS 181236Z 23009KT 09/04 A2984 RMK A01 T00890040  RH  071%=      5-min Rain = 0
KAHS 181237Z 22009KT 09/04 A2984 RMK A01 T00890040  RH  071%=      5-min Rain = 0
KAHS 181238Z 22009KT 09/04 A2984 RMK A01 T00900040  RH  071%=      5-min Rain = 0
KAHS 181239Z 22009KT 09/04 A2984 RMK A01 T00900040  RH  071%=      5-min Rain = 0
KAHS 181240Z 22009KT 09/04 A2984 RMK A01 T00900040  RH  071%=      5-min Rain = 0
KAHS 181241Z 23009KT 09/04 A2984 RMK A01 T00900040  RH  071%=      5-min Rain = 0
KAHS 181242Z 23009KT 09/04 A2984 RMK A01 T00910040  RH  071%=      5-min Rain = 0
KAHS 181243Z 23009KT 09/04 A2984 RMK A01 T00900040  RH  071%=      5-min Rain = 0
KAHS 181244Z 22008KT 09/04 A2984 RMK A01 T00900040  RH  071%=      5-min Rain = 0
KAHS 181245Z 22008KT 09/04 A2984 RMK A01 T00900040  RH  071%=      5-min Rain = 0
KAHS 181246Z 22008KT 09/04 A2984 RMK A01 T00890040  RH  071%=      5-min Rain = 0
KAHS 181247Z 22008KT 09/04 A2984 RMK A01 T00900040  RH  071%=      5-min Rain = 0
KAHS 181248Z 23009KT 09/04 A2984 RMK A01 T00890040  RH  071%=      5-min Rain = 0
KAHS 181249Z 22008KT 09/04 A2984 RMK A01 T00900041  RH  071%=      5-min Rain = 0
KAHS 181250Z 22009KT 09/04 A2984 RMK A01 T00910041  RH  071%=      5-min Rain = 0
KAHS 181251Z 23010KT 09/04 A2984 RMK A01 T00920041  RH  071%=      5-min Rain = 0
KAHS 181252Z 22009KT 09/04 A2984 RMK A01 T00920041  RH  070%=      5-min Rain = 0
KAHS 181253Z 22008KT 09/04 A2984 RMK A01 T00930042  RH  070%=      5-min Rain = 0
KAHS 181254Z 22008KT 09/04 A2984 RMK A01 T00930042  RH  070%=      5-min Rain = 0
KAHS 181255Z 22009KT 09/04 A2984 RMK A01 T00920042  RH  071%=      5-min Rain = 0
KAHS 181256Z 23010KT 09/04 A2984 RMK A01 T00920042  RH  071%=      5-min Rain = 0
KAHS 181257Z 23009KT 09/04 A2984 RMK A01 T00930042  RH  071%=      5-min Rain = 0
KAHS 181258Z 22009KT 09/04 A2984 RMK A01 T00930042  RH  070%=      5-min Rain = 0
KAHS 181259Z 22009KT 09/04 A2984 RMK A01 T00930042  RH  070%=      5-min Rain = 0
KAHS 181300Z 22009KT 09/04 A2984 RMK A01 T00930042  RH  071%=      5-min Rain = 0
KAHS 181301Z 22008KT 09/04 A2984 RMK A01 T00930042  RH  070%=      5-min Rain = 0
KAHS 181302Z 22010KT 09/04 A2984 RMK A01 T00920042  RH  071%=      5-min Rain = 0
KAHS 181303Z 22008KT 09/04 A2984 RMK A01 T00920042  RH  071%=      5-min Rain = 0
KAHS 181304Z 22009KT 09/04 A2984 RMK A01 T00920042  RH  071%=      5-min Rain = 0
KAHS 181305Z 22009KT 09/04 A2984 RMK A01 T00920043  RH  071%=      5-min Rain = 0
KAHS 181306Z 22008KT 09/04 A2984 RMK A01 T00910042  RH  071%=      5-min Rain = 0
KAHS 181307Z 22010KT 09/04 A2983 RMK A01 T00900043  RH  072%=      5-min Rain = 0
KAHS 181308Z 22009KT 09/04 A2984 RMK A01 T00910043  RH  072%=      5-min Rain = 0
KAHS 181309Z 22009KT 09/04 A2984 RMK A01 T00900043  RH  072%=      5-min Rain = 0
KAHS 181310Z 22009KT 09/04 A2983 RMK A01 T00910043  RH  072%=      5-min Rain = 0
KAHS 181311Z 22009KT 09/04 A2983 RMK A01 T00910043  RH  072%=      5-min Rain = 0
KAHS 181312Z 22009KT 09/04 A2983 RMK A01 T00900043  RH  072%=      5-min Rain = 0
KAHS 181313Z 22009KT 09/04 A2983 RMK A01 T00900043  RH  072%=      5-min Rain = 0
KAHS 181314Z 22008KT 09/04 A2983 RMK A01 T00900043  RH  072%=      5-min Rain = 0
KAHS 181315Z 22008KT 09/04 A2983 RMK A01 T00910043  RH  072%=      5-min Rain = 0
KAHS 181316Z 22008KT 09/04 A2983 RMK A01 T00900043  RH  072%=      5-min Rain = 0
KAHS 181317Z 22008KT 09/04 A2983 RMK A01 T00900043  RH  072%=      5-min Rain = 0
KAHS 181318Z 22008KT 09/04 A2983 RMK A01 T00900043  RH  072%=      5-min Rain = 0
KAHS 181319Z 22007KT 09/04 A2983 RMK A01 T00900043  RH  073%=      5-min Rain = 0
KAHS 181320Z 22007KT 09/04 A2984 RMK A01 T00900043  RH  072%=      5-min Rain = 0
KAHS 181321Z 23007KT 09/04 A2984 RMK A01 T00900043  RH  072%=      5-min Rain = 0
KAHS 181322Z 23007KT 09/04 A2984 RMK A01 T00900043  RH  072%=      5-min Rain = 0
KAHS 181323Z 23008KT 09/04 A2984 RMK A01 T00900043  RH  073%=      5-min Rain = 0
KAHS 181324Z 23007KT 09/04 A2984 RMK A01 T00900043  RH  073%=      5-min Rain = 0
KAHS 181325Z 23007KT 09/04 A2984 RMK A01 T00900043  RH  073%=      5-min Rain = 0
KAHS 181326Z 22007KT 09/04 A2984 RMK A01 T00900043  RH  073%=      5-min Rain = 0
KAHS 181327Z 22008KT 09/04 A2984 RMK A01 T00890043  RH  073%=      5-min Rain = 0
KAHS 181328Z 22008KT 09/04 A2984 RMK A01 T00890043  RH  073%=      5-min Rain = 0
KAHS 181329Z 22006KT 09/04 A2984 RMK A01 T00890043  RH  073%=      5-min Rain = 0
KAHS 181330Z 23006KT 09/04 A2984 RMK A01 T00890043  RH  073%=      5-min Rain = 0
KAHS 181331Z 23006KT 09/04 A2984 RMK A01 T00880043  RH  073%=      5-min Rain = 0
KAHS 181332Z 24007KT 09/04 A2984 RMK A01 T00880043  RH  073%=      5-min Rain = 0
KAHS 181333Z 24007KT 09/04 A2984 RMK A01 T00880043  RH  073%=      5-min Rain = 0
KAHS 181334Z 23007KT 09/04 A2984 RMK A01 T00880043  RH  073%=      5-min Rain = 0
KAHS 181335Z 23006KT 09/04 A2984 RMK A01 T00880042  RH  073%=      5-min Rain = 0
KAHS 181336Z 23006KT 09/04 A2985 RMK A01 T00880042  RH  073%=      5-min Rain = 0
KAHS 181337Z 23006KT 09/04 A2985 RMK A01 T00870042  RH  073%=      5-min Rain = 0
KAHS 181338Z 23006KT 09/04 A2985 RMK A01 T00870041  RH  073%=      5-min Rain = 0
KAHS 181339Z 23006KT 09/04 A2985 RMK A01 T00880041  RH  073%=      5-min Rain = 0
KAHS 181340Z 22006KT 09/04 A2984 RMK A01 T00880041  RH  072%=      5-min Rain = 0
KAHS 181341Z 22006KT 09/04 A2984 RMK A01 T00880041  RH  072%=      5-min Rain = 0
KAHS 181342Z 22008KT 09/04 A2984 RMK A01 T00890041  RH  072%=      5-min Rain = 0
KAHS 181343Z 22007KT 09/04 A2984 RMK A01 T00910041  RH  071%=      5-min Rain = 0
KAHS 181344Z 23007KT 09/04 A2984 RMK A01 T00910040  RH  071%=      5-min Rain = 0
KAHS 181345Z 23007KT 09/04 A2985 RMK A01 T00910040  RH  070%=      5-min Rain = 0
KAHS 181346Z 22007KT 09/04 A2985 RMK A01 T00910040  RH  071%=      5-min Rain = 0
KAHS 181347Z 23009KT 09/04 A2984 RMK A01 T00920041  RH  070%=      5-min Rain = 0
KAHS 181348Z 22010KT 09/04 A2984 RMK A01 T00930040  RH  070%=      5-min Rain = 0
KAHS 181349Z 22009KT 09/04 A2984 RMK A01 T00940041  RH  069%=      5-min Rain = 0
KAHS 181350Z 22010KT 09/04 A2984 RMK A01 T00940040  RH  069%=      5-min Rain = 0
KAHS 181351Z 22010KT 10/04 A2984 RMK A01 T00950041  RH  069%=      5-min Rain = 0
KAHS 181352Z 22009KT 10/04 A2984 RMK A01 T00960041  RH  068%=      5-min Rain = 0
KAHS 181353Z 22008KT 10/04 A2984 RMK A01 T00960040  RH  068%=      5-min Rain = 0
KAHS 181354Z 23007KT 10/04 A2984 RMK A01 T00960040  RH  068%=      5-min Rain = 0
KAHS 181355Z 24008KT 10/04 A2984 RMK A01 T00950040  RH  069%=      5-min Rain = 0
KAHS 181356Z 23008KT 10/04 A2984 RMK A01 T00960041  RH  069%=      5-min Rain = 0
KAHS 181357Z 23009KT 10/04 A2984 RMK A01 T00970041  RH  068%=      5-min Rain = 0
KAHS 181358Z 23010KT 10/04 A2984 RMK A01 T00980041  RH  068%=      5-min Rain = 0
KAHS 181359Z 23009KT 10/04 A2984 RMK A01 T00990041  RH  067%=      5-min Rain = 0
KAHS 181400Z 23009KT 10/04 A2984 RMK A01 T00990042  RH  068%=      5-min Rain = 0
KAHS 181401Z 23011KT 10/04 A2984 RMK A01 T00990042  RH  067%=      5-min Rain = 0
KAHS 181402Z 23009KT 10/04 A2984 RMK A01 T01000042  RH  067%=      5-min Rain = 0
KAHS 181403Z 23010KT 10/04 A2984 RMK A01 T01010042  RH  067%=      5-min Rain = 0
KAHS 181404Z 23011KT 10/04 A2984 RMK A01 T01020042  RH  066%=      5-min Rain = 0
KAHS 181405Z 24010KT 10/04 A2984 RMK A01 T01030042  RH  066%=      5-min Rain = 0
KAHS 181406Z 23010KT 10/04 A2984 RMK A01 T01040042  RH  066%=      5-min Rain = 0
KAHS 181407Z 23010KT 10/04 A2984 RMK A01 T01040042  RH  066%=      5-min Rain = 0
KAHS 181408Z 23010KT 10/04 A2984 RMK A01 T01040042  RH  066%=      5-min Rain = 0
KAHS 181409Z 23013KT 10/04 A2983 RMK A01 T01040042  RH  065%=      5-min Rain = 0
KAHS 181410Z 24012KT 11/04 A2984 RMK A01 T01050042  RH  065%=      5-min Rain = 0
KAHS 181411Z 23011KT 11/04 A2983 RMK A01 T01050042  RH  065%=      5-min Rain = 0
KAHS 181412Z 23010KT 11/04 A2983 RMK A01 T01050042  RH  065%=      5-min Rain = 0
KAHS 181413Z 23011KT 11/04 A2983 RMK A01 T01050042  RH  065%=      5-min Rain = 0
KAHS 181414Z 23012KT 11/04 A2983 RMK A01 T01050042  RH  065%=      5-min Rain = 0
KAHS 181415Z 23010KT 11/04 A2984 RMK A01 T01060042  RH  065%=      5-min Rain = 0
KAHS 181416Z 23011KT 11/04 A2983 RMK A01 T01060042  RH  065%=      5-min Rain = 0
KAHS 181417Z 23010KT 11/04 A2983 RMK A01 T01060042  RH  065%=      5-min Rain = 0
KAHS 181418Z 23010KT 11/04 A2983 RMK A01 T01060042  RH  065%=      5-min Rain = 0
KAHS 181419Z 23012KT 11/04 A2983 RMK A01 T01070042  RH  064%=      5-min Rain = 0
KAHS 181420Z 23011KT 11/04 A2983 RMK A01 T01070042  RH  064%=      5-min Rain = 0
KAHS 181421Z 23010KT 11/04 A2983 RMK A01 T01080042  RH  064%=      5-min Rain = 0
KAHS 181422Z 23010KT 11/04 A2983 RMK A01 T01080042  RH  064%=      5-min Rain = 0
KAHS 181423Z 23010G15KT 11/04 A2983 RMK A01 T01090043  RH  064%=      5-min Rain = 0
KAHS 181424Z 23013KT 11/04 A2983 RMK A01 T01100043  RH  063%=      5-min Rain = 0
KAHS 181425Z 22011KT 11/04 A2983 RMK A01 T01110042  RH  063%=      5-min Rain = 0
KAHS 181426Z 23009KT 11/04 A2983 RMK A01 T01110043  RH  063%=      5-min Rain = 0
KAHS 181427Z 23012KT 11/04 A2983 RMK A01 T01110043  RH  063%=      5-min Rain = 0
KAHS 181428Z 23011KT 11/04 A2983 RMK A01 T01120043  RH  062%=      5-min Rain = 0
KAHS 181429Z 23012KT 11/04 A2983 RMK A01 T01130042  RH  062%=      5-min Rain = 0
KAHS 181430Z 23013KT 11/04 A2983 RMK A01 T01140042  RH  061%=      5-min Rain = 0
KAHS 181431Z 23014KT 12/04 A2982 RMK A01 T01150042  RH  061%=      5-min Rain = 0
KAHS 181432Z 23013KT 12/04 A2982 RMK A01 T01160041  RH  060%=      5-min Rain = 0
KAHS 181433Z 23012KT 12/04 A2982 RMK A01 T01160041  RH  060%=      5-min Rain = 0
KAHS 181434Z 23014KT 12/04 A2982 RMK A01 T01160041  RH  060%=      5-min Rain = 0
KAHS 181435Z 23013KT 12/04 A2983 RMK A01 T01160041  RH  060%=      5-min Rain = 0
KAHS 181436Z 23011KT 12/04 A2983 RMK A01 T01160041  RH  060%=      5-min Rain = 0
KAHS 181437Z 23013KT 12/04 A2982 RMK A01 T01170041  RH  060%=      5-min Rain = 0
KAHS 181438Z 23015KT 12/04 A2982 RMK A01 T01170041  RH  059%=      5-min Rain = 0
KAHS 181439Z 24013KT 12/04 A2982 RMK A01 T01170040  RH  059%=      5-min Rain = 0
KAHS 181440Z 24013G18KT 12/04 A2983 RMK A01 T01180041  RH  059%=      5-min Rain = 0
KAHS 181441Z 23012KT 12/04 A2982 RMK A01 T01180040  RH  059%=      5-min Rain = 0
KAHS 181442Z 24013KT 12/04 A2982 RMK A01 T01190041  RH  059%=      5-min Rain = 0
KAHS 181443Z 24014KT 12/04 A2982 RMK A01 T01190040  RH  058%=      5-min Rain = 0
KAHS 181444Z 23016KT 12/04 A2982 RMK A01 T01210040  RH  058%=      5-min Rain = 0
KAHS 181445Z 23013KT 12/04 A2982 RMK A01 T01220040  RH  057%=      5-min Rain = 0
KAHS 181446Z 24011KT 12/04 A2982 RMK A01 T01220041  RH  057%=      5-min Rain = 0
KAHS 181447Z 23012KT 12/04 A2982 RMK A01 T01220041  RH  057%=      5-min Rain = 0
KAHS 181448Z 24014KT 12/04 A2982 RMK A01 T01220040  RH  057%=      5-min Rain = 0
KAHS 181449Z 23012KT 12/04 A2982 RMK A01 T01220039  RH  057%=      5-min Rain = 0
KAHS 181450Z 24014KT 12/04 A2982 RMK A01 T01230040  RH  057%=      5-min Rain = 0
KAHS 181451Z 24012KT 12/04 A2982 RMK A01 T01230040  RH  057%=      5-min Rain = 0
KAHS 181452Z 23011KT 12/04 A2982 RMK A01 T01220039  RH  057%=      5-min Rain = 0
KAHS 181453Z 23014KT 12/04 A2982 RMK A01 T01220039  RH  057%=      5-min Rain = 0
KAHS 181454Z 24015KT 12/04 A2982 RMK A01 T01220038  RH  057%=      5-min Rain = 0
KAHS 181455Z 23013G18KT 12/04 A2982 RMK A01 T01210038  RH  057%=      5-min Rain = 0
KAHS 181456Z 23012KT 12/04 A2982 RMK A01 T01210039  RH  057%=      5-min Rain = 0
KAHS 181457Z 24011KT 12/04 A2982 RMK A01 T01210039  RH  057%=      5-min Rain = 0
KAHS 181458Z 23012KT 12/04 A2982 RMK A01 T01210039  RH  057%=      5-min Rain = 0
KAHS 181459Z 23011KT 12/04 A2982 RMK A01 T01210038  RH  057%=      5-min Rain = 0
KAHS 181500Z 24011KT 12/04 A2982 RMK A01 T01210039  RH  057%=      5-min Rain = 0
KAHS 181501Z 24011KT 12/04 A2982 RMK A01 T01210039  RH  057%=      5-min Rain = 0
KAHS 181502Z 24011KT 12/04 A2982 RMK A01 T01220039  RH  057%=      5-min Rain = 0
KAHS 181503Z 23012KT 12/04 A2982 RMK A01 T01220039  RH  057%=      5-min Rain = 0
KAHS 181504Z 23010KT 12/04 A2982 RMK A01 T01220039  RH  057%=      5-min Rain = 0
KAHS 181505Z 23012KT 12/04 A2982 RMK A01 T01230040  RH  057%=      5-min Rain = 0
KAHS 181506Z 23013G18KT 13/04 A2982 RMK A01 T01250040  RH  056%=      5-min Rain = 0
KAHS 181507Z 24014KT 13/04 A2982 RMK A01 T01260040  RH  055%=      5-min Rain = 0
KAHS 181508Z 23013KT 13/04 A2982 RMK A01 T01270040  RH  055%=      5-min Rain = 0
KAHS 181509Z 23013KT 13/04 A2981 RMK A01 T01280040  RH  055%=      5-min Rain = 0
KAHS 181510Z 23013G18KT 13/04 A2981 RMK A01 T01290040  RH  055%=      5-min Rain = 0
KAHS 181511Z 23013KT 13/04 A2982 RMK A01 T01300040  RH  054%=      5-min Rain = 0
KAHS 181512Z 24014KT 13/04 A2982 RMK A01 T01300040  RH  054%=      5-min Rain = 0
KAHS 181513Z 24013KT 13/04 A2981 RMK A01 T01310039  RH  054%=      5-min Rain = 0
KAHS 181514Z 24013KT 13/04 A2982 RMK A01 T01310040  RH  054%=      5-min Rain = 0
KAHS 181515Z 24011KT 13/04 A2982 RMK A01 T01310039  RH  054%=      5-min Rain = 0
KAHS 181516Z 23013KT 13/04 A2981 RMK A01 T01310040  RH  054%=      5-min Rain = 0
KAHS 181517Z 23014KT 13/04 A2981 RMK A01 T01310039  RH  054%=      5-min Rain = 0
KAHS 181518Z 24013KT 13/04 A2981 RMK A01 T01320039  RH  053%=      5-min Rain = 0
KAHS 181519Z 23013G20KT 13/04 A2981 RMK A01 T01320040  RH  053%=      5-min Rain = 0
KAHS 181520Z 23015KT 13/04 A2981 RMK A01 T01330040  RH  053%=      5-min Rain = 0
KAHS 181521Z 23012G17KT 13/04 A2981 RMK A01 T01340040  RH  053%=      5-min Rain = 0
KAHS 181522Z 24015KT 14/04 A2981 RMK A01 T01350040  RH  053%=      5-min Rain = 0
KAHS 181523Z 23013KT 14/04 A2981 RMK A01 T01360039  RH  052%=      5-min Rain = 0
KAHS 181524Z 23013KT 14/04 A2981 RMK A01 T01370040  RH  052%=      5-min Rain = 0
KAHS 181525Z 23014KT 14/04 A2982 RMK A01 T01370040  RH  052%=      5-min Rain = 0
KAHS 181526Z 24012KT 14/04 A2982 RMK A01 T01380040  RH  052%=      5-min Rain = 0
KAHS 181527Z 24014KT 14/04 A2982 RMK A01 T01390041  RH  051%=      5-min Rain = 0
KAHS 181528Z 24013KT 14/04 A2982 RMK A01 T01400042  RH  051%=      5-min Rain = 0
KAHS 181529Z 24014KT 14/04 A2982 RMK A01 T01410042  RH  051%=      5-min Rain = 0
KAHS 181530Z 23014KT 14/04 A2982 RMK A01 T01420040  RH  050%=      5-min Rain = 0
KAHS 181531Z 23013KT 14/04 A2982 RMK A01 T01430043  RH  051%=      5-min Rain = 0
KAHS 181532Z 24016KT 14/04 A2982 RMK A01 T01440041  RH  050%=      5-min Rain = 0
KAHS 181533Z 23015KT 14/04 A2982 RMK A01 T01430040  RH  050%=      5-min Rain = 0
KAHS 181534Z 23012KT 14/04 A2982 RMK A01 T01420041  RH  051%=      5-min Rain = 0
KAHS 181535Z 23014KT 14/04 A2982 RMK A01 T01410041  RH  051%=      5-min Rain = 0
KAHS 181536Z 24011G16KT 14/04 A2982 RMK A01 T01410040  RH  051%=      5-min Rain = 0
KAHS 181537Z 24009KT 14/04 A2982 RMK A01 T01400042  RH  052%=      5-min Rain = 0
KAHS 181538Z 23013KT 14/04 A2982 RMK A01 T01400041  RH  051%=      5-min Rain = 0
KAHS 181539Z 23013KT 14/04 A2982 RMK A01 T01390041  RH  051%=      5-min Rain = 0
KAHS 181540Z 23015KT 14/04 A2982 RMK A01 T01390039  RH  051%=      5-min Rain = 0
KAHS 181541Z 23013KT 14/04 A2982 RMK A01 T01390039  RH  051%=      5-min Rain = 0
KAHS 181542Z 23013KT 14/04 A2982 RMK A01 T01390039  RH  051%=      5-min Rain = 0
KAHS 181543Z 23013KT 14/04 A2982 RMK A01 T01390039  RH  051%=      5-min Rain = 0
KAHS 181544Z 23011KT 14/04 A2982 RMK A01 T01390040  RH  051%=      5-min Rain = 0
KAHS 181545Z 23013KT 14/04 A2982 RMK A01 T01410041  RH  051%=      5-min Rain = 0
KAHS 181546Z 23011KT 14/04 A2982 RMK A01 T01410041  RH  051%=      5-min Rain = 0
KAHS 181547Z 23009G14KT 14/04 A2982 RMK A01 T01400041  RH  051%=      5-min Rain = 0
KAHS 181548Z 23011KT 14/04 A2982 RMK A01 T01390042  RH  052%=      5-min Rain = 0
KAHS 181549Z 23012KT 14/04 A2982 RMK A01 T01390042  RH  052%=      5-min Rain = 0
KAHS 181550Z 23012KT 14/04 A2982 RMK A01 T01400041  RH  052%=      5-min Rain = 0
KAHS 181551Z 23011KT 14/04 A2982 RMK A01 T01410042  RH  051%=      5-min Rain = 0
KAHS 181552Z 23011KT 14/04 A2982 RMK A01 T01440044  RH  051%=      5-min Rain = 0
KAHS 181553Z 23012KT 15/04 A2982 RMK A01 T01460044  RH  050%=      5-min Rain = 0
KAHS 181554Z 23011KT 15/04 A2982 RMK A01 T01480043  RH  050%=      5-min Rain = 0
KAHS 181555Z 23013KT 15/04 A2982 RMK A01 T01490044  RH  049%=      5-min Rain = 0
KAHS 181556Z 23015KT 15/04 A2982 RMK A01 T01500042  RH  048%=      5-min Rain = 0
KAHS 181557Z 23014KT 15/04 A2982 RMK A01 T01510041  RH  048%=      5-min Rain = 0
KAHS 181558Z 24014KT 15/04 A2982 RMK A01 T01530043  RH  048%=      5-min Rain = 0
KAHS 181559Z 23013KT 16/04 A2982 RMK A01 T01550042  RH  047%=      5-min Rain = 0
KAHS 181600Z 24015KT 16/04 A2982 RMK A01 T01570042  RH  047%=      5-min Rain = 0
KAHS 181601Z 23013G19KT 16/04 A2982 RMK A01 T01580043  RH  046%=      5-min Rain = 0
KAHS 181602Z 23015KT 16/04 A2981 RMK A01 T01590042  RH  046%=      5-min Rain = 0
KAHS 181603Z 22012KT 16/04 A2981 RMK A01 T01600044  RH  046%=      5-min Rain = 0
KAHS 181604Z 22013KT 16/05 A2981 RMK A01 T01610045  RH  046%=      5-min Rain = 0
KAHS 181605Z 23011KT 16/05 A2981 RMK A01 T01630045  RH  045%=      5-min Rain = 0
KAHS 181606Z 24013KT 16/05 A2981 RMK A01 T01630045  RH  045%=      5-min Rain = 0
KAHS 181607Z 23014KT 16/04 A2981 RMK A01 T01630043  RH  045%=      5-min Rain = 0
KAHS 181608Z 23014G19KT 16/04 A2981 RMK A01 T01610041  RH  045%=      5-min Rain = 0
KAHS 181609Z 23014KT 16/04 A2981 RMK A01 T01610042  RH  045%=      5-min Rain = 0
KAHS 181610Z 22015KT 16/04 A2981 RMK A01 T01600041  RH  045%=      5-min Rain = 0
KAHS 181611Z 22012KT 16/04 A2981 RMK A01 T01590042  RH  045%=      5-min Rain = 0
KAHS 181612Z 23011G17KT 16/04 A2981 RMK A01 T01590043  RH  046%=      5-min Rain = 0
KAHS 181613Z 24013KT 16/04 A2981 RMK A01 T01610044  RH  046%=      5-min Rain = 0
KAHS 181614Z 23014KT 16/04 A2981 RMK A01 T01620042  RH  045%=      5-min Rain = 0
KAHS 181615Z 23012KT 16/04 A2981 RMK A01 T01630043  RH  045%=      5-min Rain = 0
KAHS 181616Z 22013KT 16/04 A2981 RMK A01 T01640043  RH  045%=      5-min Rain = 0
KAHS 181617Z 22012KT 16/04 A2981 RMK A01 T01630044  RH  045%=      5-min Rain = 0
KAHS 181618Z 23015KT 16/04 A2981 RMK A01 T01630042  RH  045%=      5-min Rain = 0
KAHS 181619Z 22014KT 16/04 A2981 RMK A01 T01630042  RH  044%=      5-min Rain = 0
KAHS 181620Z 23012KT 17/04 A2981 RMK A01 T01650044  RH  044%=      5-min Rain = 0
KAHS 181621Z 22011KT 17/04 A2981 RMK A01 T01660044  RH  044%=      5-min Rain = 0
KAHS 181622Z 23014KT 17/04 A2981 RMK A01 T01670043  RH  044%=      5-min Rain = 0
KAHS 181623Z 22011KT 17/04 A2981 RMK A01 T01680044  RH  044%=      5-min Rain = 0
KAHS 181624Z 23012KT 17/05 A2981 RMK A01 T01690045  RH  044%=      5-min Rain = 0
KAHS 181625Z 22014KT 17/05 A2981 RMK A01 T01690045  RH  044%=      5-min Rain = 0
KAHS 181626Z 22013KT 17/04 A2981 RMK A01 T01680043  RH  043%=      5-min Rain = 0
KAHS 181627Z 23014KT 17/04 A2981 RMK A01 T01690042  RH  043%=      5-min Rain = 0
KAHS 181628Z 23012G17KT 17/04 A2981 RMK A01 T01700043  RH  043%=      5-min Rain = 0
KAHS 181629Z 22013KT 17/04 A2981 RMK A01 T01710044  RH  043%=      5-min Rain = 0
KAHS 181630Z 23015KT 17/04 A2981 RMK A01 T01720043  RH  042%=      5-min Rain = 0
KAHS 181631Z 24013KT 17/04 A2981 RMK A01 T01720041  RH  042%=      5-min Rain = 0
KAHS 181632Z 23015G20KT 17/04 A2981 RMK A01 T01730043  RH  042%=      5-min Rain = 0
KAHS 181633Z 23015KT 17/04 A2981 RMK A01 T01720041  RH  042%=      5-min Rain = 0
KAHS 181634Z 23013KT 17/04 A2981 RMK A01 T01730042  RH  042%=      5-min Rain = 0
KAHS 181635Z 23011KT 17/04 A2981 RMK A01 T01740044  RH  042%=      5-min Rain = 0
KAHS 181636Z 22014KT 18/04 A2981 RMK A01 T01760044  RH  042%=      5-min Rain = 0
KAHS 181637Z 22012KT 18/04 A2981 RMK A01 T01760043  RH  041%=      5-min Rain = 0
KAHS 181638Z 23013KT 18/04 A298 RMK A01 T01770044  RH  041%=      5-min Rain = 0
KAHS 181639Z 23012KT 18/04 A298 RMK A01 T01770041  RH  041%=      5-min Rain = 0
KAHS 181640Z 22013G18KT 18/04 A298 RMK A01 T01770042  RH  041%=      5-min Rain = 0
KAHS 181641Z 22013KT 18/04 A298 RMK A01 T01770044  RH  041%=      5-min Rain = 0
KAHS 181642Z 22014KT 18/04 A298 RMK A01 T01770042  RH  041%=      5-min Rain = 0
KAHS 181643Z 22014KT 18/04 A298 RMK A01 T01770042  RH  041%=      5-min Rain = 0
KAHS 181644Z 22016KT 18/04 A298 RMK A01 T01770042  RH  041%=      5-min Rain = 0
KAHS 181645Z 21014G19KT 18/04 A298 RMK A01 T01760042  RH  041%=      5-min Rain = 0
KAHS 181646Z 22014KT 18/04 A298 RMK A01 T01770044  RH  041%=      5-min Rain = 0
KAHS 181647Z 23013KT 18/04 A298 RMK A01 T01780044  RH  041%=      5-min Rain = 0
KAHS 181648Z 23014KT 18/04 A298 RMK A01 T01790043  RH  041%=      5-min Rain = 0
KAHS 181649Z 22013G18KT 18/04 A298 RMK A01 T01790043  RH  040%=      5-min Rain = 0
KAHS 181650Z 23012KT 18/04 A298 RMK A01 T01800043  RH  040%=      5-min Rain = 0
KAHS 181651Z 22015KT 18/04 A298 RMK A01 T01820044  RH  040%=      5-min Rain = 0
KAHS 181652Z 23016KT 18/04 A298 RMK A01 T01800039  RH  039%=      5-min Rain = 0
KAHS 181653Z 23015KT 18/04 A298 RMK A01 T01810040  RH  039%=      5-min Rain = 0
KAHS 181654Z 23014KT 18/04 A298 RMK A01 T01810038  RH  039%=      5-min Rain = 0
KAHS 181655Z 23013KT 18/04 A2981 RMK A01 T01820041  RH  039%=      5-min Rain = 0
KAHS 181656Z 23016G21KT 18/04 A2981 RMK A01 T01820040  RH  039%=      5-min Rain = 0
KAHS 181657Z 24013KT 18/04 A2981 RMK A01 T01820040  RH  039%=      5-min Rain = 0
KAHS 181658Z 23014KT 18/04 A2981 RMK A01 T01830041  RH  039%=      5-min Rain = 0
KAHS 181659Z 24014KT 18/04 A2981 RMK A01 T01830040  RH  039%=      5-min Rain = 0
KAHS 181700Z 23014KT 18/04 A2981 RMK A01 T01830041  RH  039%=      5-min Rain = 0
KAHS 181701Z 24016KT 18/04 A2981 RMK A01 T01840040  RH  038%=      5-min Rain = 0
KAHS 181702Z 24018KT 18/04 A2981 RMK A01 T01830038  RH  038%=      5-min Rain = 0
KAHS 181703Z 24015KT 18/04 A298 RMK A01 T01820038  RH  038%=      5-min Rain = 0
KAHS 181704Z 23015G22KT 18/04 A298 RMK A01 T01830039  RH  038%=      5-min Rain = 0
KAHS 181705Z 23015G20KT 19/04 A298 RMK A01 T01850040  RH  038%=      5-min Rain = 0
KAHS 181706Z 23015G20KT 18/04 A298 RMK A01 T01840037  RH  038%=      5-min Rain = 0
KAHS 181707Z 23016KT 18/04 A298 RMK A01 T01840039  RH  038%=      5-min Rain = 0
KAHS 181708Z 23015KT 19/04 A298 RMK A01 T01850038  RH  038%=      5-min Rain = 0
KAHS 181709Z 24018KT 19/04 A298 RMK A01 T01860037  RH  037%=      5-min Rain = 0
KAHS 181710Z 24019G25KT 19/04 A298 RMK A01 T01860036  RH  037%=      5-min Rain = 0
KAHS 181711Z 24019KT 19/03 A298 RMK A01 T01860033  RH  036%=      5-min Rain = 0
KAHS 181712Z 25017KT 19/03 A298 RMK A01 T01870034  RH  036%=      5-min Rain = 0
KAHS 181713Z 24014G19KT 19/04 A298 RMK A01 T01880036  RH  037%=      5-min Rain = 0
KAHS 181714Z 25017G22KT 19/04 A298 RMK A01 T01890035  RH  036%=      5-min Rain = 0
KAHS 181715Z 25019KT 19/03 A298 RMK A01 T01890034  RH  036%=      5-min Rain = 0
KAHS 181716Z 24016KT 19/03 A298 RMK A01 T01890032  RH  035%=      5-min Rain = 0
KAHS 181717Z 24017G23KT 19/03 A298 RMK A01 T01900032  RH  035%=      5-min Rain = 0
KAHS 181718Z 25018KT 19/03 A2979 RMK A01 T01900029  RH  034%=      5-min Rain = 0
KAHS 181719Z 25018KT 19/03 A2979 RMK A01 T01900029  RH  034%=      5-min Rain = 0
KAHS 181720Z 25016KT 19/03 A2979 RMK A01 T01910032  RH  035%=      5-min Rain = 0
KAHS 181721Z 25017KT 19/03 A2979 RMK A01 T01920031  RH  034%=      5-min Rain = 0
KAHS 181722Z 24017G22KT 19/03 A2979 RMK A01 T01930030  RH  034%=      5-min Rain = 0
KAHS 181723Z 24021G28KT 19/03 A2979 RMK A01 T01930028  RH  033%=      5-min Rain = 0
KAHS 181724Z 25018G26KT 20/03 A2979 RMK A01 T01950031  RH  034%=      5-min Rain = 0
KAHS 181725Z 25018G24KT 19/03 A2979 RMK A01 T01940028  RH  033%=      5-min Rain = 0
KAHS 181726Z 24017KT 20/03 A2979 RMK A01 T01950029  RH  033%=      5-min Rain = 0
KAHS 181727Z 24020G25KT 20/03 A2979 RMK A01 T01960027  RH  033%=      5-min Rain = 0
KAHS 181728Z 24019KT 20/03 A2979 RMK A01 T01960026  RH  032%=      5-min Rain = 0
KAHS 181729Z 24017KT 20/03 A2978 RMK A01 T01960027  RH  032%=      5-min Rain = 0
KAHS 181730Z 24014G19KT 20/03 A2978 RMK A01 T01980031  RH  033%=      5-min Rain = 0
KAHS 181731Z 25019KT 20/03 A2978 RMK A01 T02000029  RH  032%=      5-min Rain = 0
KAHS 181732Z 25019G25KT 20/03 A2978 RMK A01 T02000027  RH  032%=      5-min Rain = 0
KAHS 181733Z 26020G25KT 20/03 A2978 RMK A01 T02000026  RH  032%=      5-min Rain = 0
KAHS 181734Z 25020G26KT 20/02 A2978 RMK A01 T01990024  RH  031%=      5-min Rain = 0
KAHS 181735Z 25022G29KT 20/03 A2978 RMK A01 T02000025  RH  031%=      5-min Rain = 0
KAHS 181736Z 25019G25KT 20/03 A2978 RMK A01 T02000025  RH  031%=      5-min Rain = 0
KAHS 181737Z 25019KT 20/03 A2978 RMK A01 T02010027  RH  032%=      5-min Rain = 0
KAHS 181738Z 25018KT 20/03 A2978 RMK A01 T02020028  RH  032%=      5-min Rain = 0
KAHS 181739Z 25015KT 20/03 A2978 RMK A01 T02020029  RH  032%=      5-min Rain = 0
KAHS 181740Z 25014KT 20/03 A2978 RMK A01 T02040031  RH  032%=      5-min Rain = 0
KAHS 181741Z 25019KT 21/03 A2977 RMK A01 T02050029  RH  031%=      5-min Rain = 0
KAHS 181742Z 25014KT 20/03 A2977 RMK A01 T02040029  RH  031%=      5-min Rain = 0
KAHS 181743Z 25014KT 21/03 A2977 RMK A01 T02050031  RH  032%=      5-min Rain = 0
KAHS 181744Z 25019KT 21/03 A2977 RMK A01 T02060028  RH  031%=      5-min Rain = 0
KAHS 181745Z 25019KT 21/03 A2977 RMK A01 T02050029  RH  031%=      5-min Rain = 0
KAHS 181746Z 26019KT 21/03 A2977 RMK A01 T02060029  RH  031%=      5-min Rain = 0
KAHS 181747Z 25019KT 21/03 A2976 RMK A01 T02050027  RH  031%=      5-min Rain = 0
KAHS 181748Z 25016KT 21/03 A2976 RMK A01 T02060030  RH  031%=      5-min Rain = 0
KAHS 181749Z 25016KT 21/03 A2976 RMK A01 T02070031  RH  031%=      5-min Rain = 0
KAHS 181750Z 24016G22KT 21/03 A2976 RMK A01 T02080032  RH  031%=      5-min Rain = 0
KAHS 181751Z 25023KT 21/03 A2976 RMK A01 T02080030  RH  031%=      5-min Rain = 0
KAHS 181752Z 25020G26KT 21/03 A2976 RMK A01 T02070028  RH  031%=      5-min Rain = 0
KAHS 181753Z 25016KT 21/03 A2976 RMK A01 T02080029  RH  031%=      5-min Rain = 0
KAHS 181754Z 25017G23KT 21/03 A2976 RMK A01 T02080032  RH  031%=      5-min Rain = 0
KAHS 181755Z 25017KT 21/03 A2976 RMK A01 T02080029  RH  031%=      5-min Rain = 0
KAHS 181756Z 25017G24KT 21/03 A2975 RMK A01 T02090031  RH  031%=      5-min Rain = 0
KAHS 181757Z 25018KT 21/03 A2975 RMK A01 T02100030  RH  030%=      5-min Rain = 0
KAHS 181758Z 24017KT 21/03 A2975 RMK A01 T02100029  RH  030%=      5-min Rain = 0
KAHS 181759Z 24019G24KT 21/03 A2975 RMK A01 T02110029  RH  030%=      5-min Rain = 0
KAHS 181800Z 25015KT 21/03 A2975 RMK A01 T02110028  RH  030%=      5-min Rain = 0
KAHS 181801Z 25017G22KT 21/03 A2975 RMK A01 T02130030  RH  030%=      5-min Rain = 0
KAHS 181802Z 25014KT 21/03 A2975 RMK A01 T02130029  RH  030%=      5-min Rain = 0
KAHS 181803Z 25018KT 22/03 A2974 RMK A01 T02150030  RH  030%=      5-min Rain = 0
KAHS 181804Z 25017KT 22/03 A2974 RMK A01 T02150029  RH  029%=      5-min Rain = 0
KAHS 181805Z 25021G27KT 22/03 A2974 RMK A01 T02160026  RH  029%=      5-min Rain = 0
KAHS 181806Z 26017KT 22/03 A2974 RMK A01 T02160026  RH  028%=      5-min Rain = 0
KAHS 181807Z 25016KT 22/03 A2974 RMK A01 T02180026  RH  028%=      5-min Rain = 0
KAHS 181808Z 25016G23KT 22/03 A2974 RMK A01 T02190026  RH  028%=      5-min Rain = 0
KAHS 181809Z 25015KT 22/03 A2974 RMK A01 T02210028  RH  028%=      5-min Rain = 0
KAHS 181810Z 24013G18KT 22/03 A2974 RMK A01 T02220031  RH  028%=      5-min Rain = 0
KAHS 181811Z 25017G23KT 22/03 A2974 RMK A01 T02230030  RH  028%=      5-min Rain = 0
KAHS 181812Z 27021G26KT 22/03 A2974 RMK A01 T02240026  RH  027%=      5-min Rain = 0
KAHS 181813Z 26025G32KT 23/02 A2973 RMK A01 T02250023  RH  027%=      5-min Rain = 0
KAHS 181814Z 26022G28KT 22/02 A2973 RMK A01 T02240022  RH  026%=      5-min Rain = 0
KAHS 181815Z 26022G27KT 22/02 A2973 RMK A01 T02240019  RH  026%=      5-min Rain = 0
KAHS 181816Z 25020G26KT 23/02 A2973 RMK A01 T02250019  RH  026%=      5-min Rain = 0
KAHS 181817Z 26022KT 23/02 A2973 RMK A01 T02250019  RH  026%=      5-min Rain = 0
KAHS 181818Z 26022G27KT 23/02 A2973 RMK A01 T02250020  RH  026%=      5-min Rain = 0
KAHS 181819Z 26020KT 23/02 A2973 RMK A01 T02260020  RH  026%=      5-min Rain = 0
KAHS 181820Z 26020KT 23/02 A2973 RMK A01 T02270020  RH  026%=      5-min Rain = 0
KAHS 181821Z 26020KT 23/02 A2972 RMK A01 T02280020  RH  026%=      5-min Rain = 0
KAHS 181822Z 26023G28KT 23/02 A2972 RMK A01 T02280020  RH  025%=      5-min Rain = 0
KAHS 181823Z 26020G25KT 23/02 A2972 RMK A01 T02290021  RH  026%=      5-min Rain = 0
KAHS 181824Z 26019KT 23/02 A2972 RMK A01 T02300022  RH  026%=      5-min Rain = 0
KAHS 181825Z 27021G31KT 23/02 A2972 RMK A01 T02300022  RH  026%=      5-min Rain = 0
KAHS 181826Z 27023G30KT 23/02 A2972 RMK A01 T02280020  RH  026%=      5-min Rain = 0
KAHS 181827Z 27023G29KT 23/02 A2972 RMK A01 T02260016  RH  025%=      5-min Rain = 0
KAHS 181828Z 27026G34KT 23/02 A2972 RMK A01 T02270017  RH  025%=      5-min Rain = 0
KAHS 181829Z 27023G29KT 23/02 A2972 RMK A01 T02280019  RH  025%=      5-min Rain = 0
KAHS 181830Z 28023G30KT 23/02 A2971 RMK A01 T02260017  RH  025%=      5-min Rain = 0
KAHS 181831Z 28027G34KT 22/01 A2971 RMK A01 T02230013  RH  025%=      5-min Rain = 0
KAHS 181832Z 28022G29KT 22/01 A2971 RMK A01 T02210013  RH  025%=      5-min Rain = 0
KAHS 181833Z 28025G31KT 22/01 A2971 RMK A01 T02210014  RH  025%=      5-min Rain = 0
KAHS 181834Z 28023G29KT 22/02 A2971 RMK A01 T02220016  RH  026%=      5-min Rain = 0
KAHS 181835Z 28027G34KT 22/02 A2971 RMK A01 T02240016  RH  025%=      5-min Rain = 0
KAHS 181836Z 28026KT 22/01 A2971 RMK A01 T02240013  RH  025%=      5-min Rain = 0
KAHS 181837Z 26019KT 22/02 A2971 RMK A01 T02230017  RH  026%=      5-min Rain = 0
KAHS 181838Z 28023G28KT 22/02 A2971 RMK A01 T02240016  RH  025%=      5-min Rain = 0
KAHS 181839Z 27025G30KT 22/02 A2971 RMK A01 T02240015  RH  025%=      5-min Rain = 0
KAHS 181840Z 27023G29KT 22/02 A2971 RMK A01 T02230015  RH  025%=      5-min Rain = 0
KAHS 181841Z 26025G30KT 22/02 A297 RMK A01 T02240015  RH  025%=      5-min Rain = 0
KAHS 181842Z 27020G27KT 22/02 A2971 RMK A01 T02230015  RH  025%=      5-min Rain = 0
KAHS 181843Z 27019G25KT 22/02 A2971 RMK A01 T02240019  RH  026%=      5-min Rain = 0
KAHS 181844Z 27023KT 22/02 A297 RMK A01 T02230018  RH  026%=      5-min Rain = 0
KAHS 181845Z 27017G22KT 22/02 A297 RMK A01 T02230020  RH  026%=      5-min Rain = 0
KAHS 181846Z 28018KT 22/02 A297 RMK A01 T02240022  RH  027%=      5-min Rain = 0
KAHS 181847Z 28022KT 22/02 A297 RMK A01 T02230020  RH  026%=      5-min Rain = 0
KAHS 181848Z 28024G29KT 22/02 A297 RMK A01 T02200018  RH  026%=      5-min Rain = 0
KAHS 181849Z 28024KT 22/02 A297 RMK A01 T02190018  RH  026%=      5-min Rain = 0
KAHS 181850Z 27022G28KT 22/02 A297 RMK A01 T02180018  RH  027%=      5-min Rain = 0
KAHS 181851Z 28020G27KT 22/02 A297 RMK A01 T02180020  RH  027%=      5-min Rain = 0
KAHS 181852Z 28020G26KT 22/02 A297 RMK A01 T02180019  RH  027%=      5-min Rain = 0
KAHS 181853Z 27021G27KT 22/02 A297 RMK A01 T02170020  RH  027%=      5-min Rain = 0
KAHS 181854Z 27025KT 22/02 A2969 RMK A01 T02170018  RH  027%=      5-min Rain = 0
KAHS 181855Z 27023G29KT 22/02 A2969 RMK A01 T02180017  RH  026%=      5-min Rain = 0
KAHS 181856Z 27025G34KT 22/02 A297 RMK A01 T02180016  RH  026%=      5-min Rain = 0
KAHS 181857Z 27023G30KT 22/02 A297 RMK A01 T02170017  RH  027%=      5-min Rain = 0
KAHS 181858Z 27021G31KT 22/02 A297 RMK A01 T02170019  RH  027%=      5-min Rain = 0
KAHS 181859Z 27024G29KT 22/02 A297 RMK A01 T02170019  RH  027%=      5-min Rain = 0
KAHS 181900Z 26024KT 22/02 A297 RMK A01 T02160017  RH  027%=      5-min Rain = 0
KAHS 181901Z 26024G30KT 22/02 A297 RMK A01 T02160018  RH  027%=      5-min Rain = 0
KAHS 181902Z 27018G25KT 22/02 A297 RMK A01 T02150018  RH  027%=      5-min Rain = 0
KAHS 181903Z 27017G22KT 22/02 A297 RMK A01 T02150021  RH  028%=      5-min Rain = 0
KAHS 181904Z 26020G25KT 22/02 A297 RMK A01 T02150021  RH  028%=      5-min Rain = 0
KAHS 181905Z 27015G21KT 22/02 A297 RMK A01 T02150021  RH  028%=      5-min Rain = 0
KAHS 181906Z 27020KT 22/02 A297 RMK A01 T02150020  RH  028%=      5-min Rain = 0
KAHS 181907Z 27019G28KT 21/02 A297 RMK A01 T02140019  RH  028%=      5-min Rain = 0
KAHS 181908Z 27026G31KT 21/02 A2969 RMK A01 T02140017  RH  027%=      5-min Rain = 0
KAHS 181909Z 26022G29KT 21/02 A297 RMK A01 T02130017  RH  027%=      5-min Rain = 0
KAHS 181910Z 26021G28KT 21/02 A2969 RMK A01 T02130018  RH  028%=      5-min Rain = 0
KAHS 181911Z 27022G27KT 21/02 A297 RMK A01 T02120018  RH  028%=      5-min Rain = 0
KAHS 181912Z 27022G28KT 21/02 A2969 RMK A01 T02120016  RH  027%=      5-min Rain = 0
KAHS 181913Z 27022G27KT 21/02 A2969 RMK A01 T02120018  RH  028%=      5-min Rain = 0
KAHS 181914Z 27023G29KT 21/02 A2969 RMK A01 T02110019  RH  028%=      5-min Rain = 0
KAHS 181915Z 26026G32KT 21/02 A2969 RMK A01 T02110017  RH  028%=      5-min Rain = 0
KAHS 181916Z 26023KT 21/02 A2969 RMK A01 T02100017  RH  028%=      5-min Rain = 0
KAHS 181917Z 26025KT 21/02 A2969 RMK A01 T02100018  RH  028%=      5-min Rain = 0
KAHS 181918Z 26022KT 21/02 A2969 RMK A01 T02100017  RH  028%=      5-min Rain = 0
KAHS 181919Z 26024G32KT 21/02 A2969 RMK A01 T02100017  RH  028%=      5-min Rain = 0
KAHS 181920Z 26020G25KT 21/02 A2969 RMK A01 T02100019  RH  028%=      5-min Rain = 0
KAHS 181921Z 26021G27KT 21/02 A2969 RMK A01 T02100020  RH  028%=      5-min Rain = 0
KAHS 181922Z 26019G24KT 21/02 A2969 RMK A01 T02100021  RH  029%=      5-min Rain = 0
KAHS 181923Z 27018KT 21/02 A2969 RMK A01 T02100021  RH  029%=      5-min Rain = 0
KAHS 181924Z 27019G26KT 21/02 A2968 RMK A01 T02110021  RH  029%=      5-min Rain = 0
KAHS 181925Z 27020KT 21/02 A2968 RMK A01 T02110021  RH  029%=      5-min Rain = 0
KAHS 181926Z 26016KT 21/02 A2968 RMK A01 T02110021  RH  029%=      5-min Rain = 0
KAHS 181927Z 26021KT 21/02 A2968 RMK A01 T02100022  RH  029%=      5-min Rain = 0
KAHS 181928Z 26022G30KT 21/02 A2968 RMK A01 T02100020  RH  028%=      5-min Rain = 0
KAHS 181929Z 26021KT 21/02 A2968 RMK A01 T02100020  RH  028%=      5-min Rain = 0
KAHS 181930Z 27023KT 21/02 A2968 RMK A01 T02090019  RH  028%=      5-min Rain = 0
KAHS 181931Z 26018G23KT 21/02 A2968 RMK A01 T02090020  RH  029%=      5-min Rain = 0
KAHS 181932Z 25018G24KT 21/02 A2968 RMK A01 T02090022  RH  029%=      5-min Rain = 0
KAHS 181933Z 26021G27KT 21/02 A2968 RMK A01 T02100022  RH  029%=      5-min Rain = 0
KAHS 181934Z 26020G26KT 21/02 A2968 RMK A01 T02100020  RH  029%=      5-min Rain = 0
KAHS 181935Z 26012KT 21/02 A2968 RMK A01 T02100024  RH  029%=      5-min Rain = 0
KAHS 181936Z 26015G23KT 21/03 A2968 RMK A01 T02110028  RH  030%=      5-min Rain = 0
KAHS 181937Z 26018KT 21/03 A2968 RMK A01 T02110025  RH  029%=      5-min Rain = 0
KAHS 181938Z 26019KT 21/02 A2968 RMK A01 T02110023  RH  029%=      5-min Rain = 0
KAHS 181939Z 25019G24KT 21/02 A2968 RMK A01 T02110023  RH  029%=      5-min Rain = 0
KAHS 181940Z 26020KT 21/02 A2968 RMK A01 T02110024  RH  029%=      5-min Rain = 0
KAHS 181941Z 26017G24KT 21/02 A2968 RMK A01 T02110023  RH  029%=      5-min Rain = 0
KAHS 181942Z 25019G24KT 21/02 A2968 RMK A01 T02110024  RH  029%=      5-min Rain = 0
KAHS 181943Z 26017G22KT 21/02 A2968 RMK A01 T02110024  RH  029%=      5-min Rain = 0
KAHS 181944Z 26013KT 21/03 A2968 RMK A01 T02110026  RH  030%=      5-min Rain = 0
KAHS 181945Z 26015KT 21/03 A2968 RMK A01 T02110027  RH  030%=      5-min Rain = 0
KAHS 181946Z 26017KT 21/03 A2968 RMK A01 T02100025  RH  029%=      5-min Rain = 0
KAHS 181947Z 26021G27KT 21/02 A2967 RMK A01 T02100024  RH  029%=      5-min Rain = 0
KAHS 181948Z 26022G27KT 21/02 A2967 RMK A01 T02100022  RH  029%=      5-min Rain = 0
KAHS 181949Z 26022G28KT 21/02 A2967 RMK A01 T02100023  RH  029%=      5-min Rain = 0
KAHS 181950Z 26021G27KT 21/02 A2967 RMK A01 T02100022  RH  029%=      5-min Rain = 0
KAHS 181951Z 26021G28KT 21/02 A2967 RMK A01 T02090022  RH  029%=      5-min Rain = 0
KAHS 181952Z 26016G21KT 21/03 A2967 RMK A01 T02090025  RH  030%=      5-min Rain = 0
KAHS 181953Z 26017KT 21/03 A2967 RMK A01 T02100025  RH  029%=      5-min Rain = 0
KAHS 181954Z 26015KT 21/02 A2967 RMK A01 T02100023  RH  029%=      5-min Rain = 0
KAHS 181955Z 25014KT 21/03 A2967 RMK A01 T02100027  RH  030%=      5-min Rain = 0
KAHS 181956Z 26019KT 21/03 A2967 RMK A01 T02110026  RH  029%=      5-min Rain = 0
KAHS 181957Z 26020KT 21/02 A2966 RMK A01 T02110024  RH  029%=      5-min Rain = 0
KAHS 181958Z 26018KT 21/03 A2966 RMK A01 T02110025  RH  029%=      5-min Rain = 0
KAHS 181959Z 26020G27KT 21/03 A2966 RMK A01 T02110025  RH  029%=      5-min Rain = 0
KAHS 182000Z 26022G27KT 21/02 A2966 RMK A01 T02110023  RH  029%=      5-min Rain = 0
KAHS 182001Z 26020KT 21/02 A2966 RMK A01 T02110024  RH  029%=      5-min Rain = 0
KAHS 182002Z 25022G29KT 21/02 A2966 RMK A01 T02110023  RH  029%=      5-min Rain = 0
KAHS 182003Z 26021G26KT 21/02 A2966 RMK A01 T02100022  RH  029%=      5-min Rain = 0
KAHS 182004Z 26019G24KT 21/02 A2966 RMK A01 T02100023  RH  029%=      5-min Rain = 0
KAHS 182005Z 26019G25KT 21/03 A2966 RMK A01 T02110025  RH  029%=      5-min Rain = 0
KAHS 182006Z 26019KT 21/02 A2966 RMK A01 T02110024  RH  029%=      5-min Rain = 0
KAHS 182007Z 25024KT 21/02 A2966 RMK A01 T02110022  RH  029%=      5-min Rain = 0
KAHS 182008Z 26018G27KT 21/02 A2966 RMK A01 T02120024  RH  029%=      5-min Rain = 0
KAHS 182009Z 26018KT 21/02 A2966 RMK A01 T02120024  RH  029%=      5-min Rain = 0
KAHS 182010Z 26019KT 21/02 A2966 RMK A01 T02120024  RH  029%=      5-min Rain = 0
KAHS 182011Z 26016G27KT 21/03 A2966 RMK A01 T02110026  RH  029%=      5-min Rain = 0
KAHS 182012Z 26019G24KT 21/03 A2965 RMK A01 T02120025  RH  029%=      5-min Rain = 0
KAHS 182013Z 27019G24KT 21/03 A2965 RMK A01 T02110025  RH  029%=      5-min Rain = 0
KAHS 182014Z 27018G24KT 21/03 A2965 RMK A01 T02110026  RH  029%=      5-min Rain = 0
KAHS 182015Z 26016G22KT 21/03 A2965 RMK A01 T02110026  RH  029%=      5-min Rain = 0
KAHS 182016Z 26020KT 21/03 A2965 RMK A01 T02120027  RH  029%=      5-min Rain = 0
KAHS 182017Z 26021G27KT 21/02 A2965 RMK A01 T02120023  RH  029%=      5-min Rain = 0
KAHS 182018Z 27019KT 21/03 A2965 RMK A01 T02140025  RH  029%=      5-min Rain = 0
KAHS 182019Z 26019KT 22/03 A2965 RMK A01 T02160027  RH  029%=      5-min Rain = 0
KAHS 182020Z 26025KT 22/03 A2965 RMK A01 T02160026  RH  029%=      5-min Rain = 0
KAHS 182021Z 26021G28KT 22/03 A2965 RMK A01 T02160025  RH  028%=      5-min Rain = 0
KAHS 182022Z 26018G23KT 22/03 A2965 RMK A01 T02180027  RH  029%=      5-min Rain = 0
KAHS 182023Z 26023KT 22/03 A2965 RMK A01 T02180025  RH  028%=      5-min Rain = 0
KAHS 182024Z 27018KT 22/03 A2965 RMK A01 T02180027  RH  028%=      5-min Rain = 0
KAHS 182025Z 27021G28KT 22/03 A2965 RMK A01 T02190027  RH  028%=      5-min Rain = 0
KAHS 182026Z 27024G30KT 22/03 A2965 RMK A01 T02190025  RH  028%=      5-min Rain = 0
KAHS 182027Z 26025KT 22/02 A2964 RMK A01 T02180022  RH  028%=      5-min Rain = 0
KAHS 182028Z 26021G29KT 22/02 A2964 RMK A01 T02180023  RH  028%=      5-min Rain = 0
KAHS 182029Z 25022G28KT 22/02 A2965 RMK A01 T02180024  RH  028%=      5-min Rain = 0
KAHS 182030Z 25022G27KT 22/02 A2965 RMK A01 T02170021  RH  028%=      5-min Rain = 0
KAHS 182031Z 25023G29KT 22/02 A2964 RMK A01 T02170022  RH  028%=      5-min Rain = 0
KAHS 182032Z 26022KT 22/02 A2964 RMK A01 T02160021  RH  028%=      5-min Rain = 0
KAHS 182033Z 27022KT 22/02 A2964 RMK A01 T02170022  RH  028%=      5-min Rain = 0
KAHS 182034Z 27025G32KT 22/02 A2964 RMK A01 T02170021  RH  027%=      5-min Rain = 0
KAHS 182035Z 25024G29KT 22/02 A2964 RMK A01 T02180022  RH  027%=      5-min Rain = 0
KAHS 182036Z 26023KT 22/02 A2964 RMK A01 T02180021  RH  027%=      5-min Rain = 0
KAHS 182037Z 27019G24KT 22/02 A2964 RMK A01 T02190024  RH  028%=      5-min Rain = 0
KAHS 182038Z 26017KT 22/03 A2964 RMK A01 T02200025  RH  028%=      5-min Rain = 0
KAHS 182039Z 26020KT 22/02 A2964 RMK A01 T02210024  RH  027%=      5-min Rain = 0
KAHS 182040Z 25018KT 22/02 A2964 RMK A01 T02210024  RH  027%=      5-min Rain = 0
KAHS 182041Z 25022KT 22/03 A2964 RMK A01 T02230025  RH  027%=      5-min Rain = 0
KAHS 182042Z 25021G26KT 22/02 A2964 RMK A01 T02230024  RH  027%=      5-min Rain = 0
KAHS 182043Z 26021G27KT 23/03 A2964 RMK A01 T02250027  RH  027%=      5-min Rain = 0
KAHS 182044Z 27022G27KT 23/02 A2964 RMK A01 T02250024  RH  027%=      5-min Rain = 0
KAHS 182045Z 28027G34KT 22/02 A2964 RMK A01 T02240019  RH  026%=      5-min Rain = 0
KAHS 182046Z 27021G26KT 22/02 A2964 RMK A01 T02240016  RH  025%=      5-min Rain = 0
KAHS 182047Z 28026G34KT 23/02 A2964 RMK A01 T02250017  RH  025%=      5-min Rain = 0
KAHS 182048Z 28025G31KT 22/01 A2964 RMK A01 T02240010  RH  024%=      5-min Rain = 0
KAHS 182049Z 28023G28KT 22/01 A2964 RMK A01 T02230008  RH  024%=      5-min Rain = 0
KAHS 182050Z 28018G23KT 23/01 A2965 RMK A01 T02250013  RH  025%=      5-min Rain = 0
KAHS 182051Z 27026G34KT 23/01 A2964 RMK A01 T02260010  RH  024%=      5-min Rain = 0
KAHS 182052Z 27021G30KT 22/01 A2965 RMK A01 T02240007  RH  024%=      5-min Rain = 0
KAHS 182053Z 26020G26KT 23/01 A2965 RMK A01 T02260013  RH  024%=      5-min Rain = 0
KAHS 182054Z 27021G26KT 23/01 A2964 RMK A01 T02250010  RH  024%=      5-min Rain = 0
KAHS 182055Z 26020G26KT 23/01 A2964 RMK A01 T02260012  RH  024%=      5-min Rain = 0
KAHS 182056Z 27022G27KT 23/01 A2964 RMK A01 T02260011  RH  024%=      5-min Rain = 0
KAHS 182057Z 26019G26KT 23/01 A2964 RMK A01 T02270012  RH  024%=      5-min Rain = 0
KAHS 182058Z 27017G22KT 23/02 A2965 RMK A01 T02280015  RH  025%=      5-min Rain = 0
KAHS 182059Z 27016G22KT 23/02 A2964 RMK A01 T02290015  RH  024%=      5-min Rain = 0
KAHS 182100Z 27018KT 23/02 A2964 RMK A01 T02290016  RH  025%=      5-min Rain = 0
KAHS 182101Z 26025G31KT 23/01 A2964 RMK A01 T02290012  RH  024%=      5-min Rain = 0
KAHS 182102Z 27023KT 23/01 A2964 RMK A01 T02270010  RH  024%=      5-min Rain = 0
KAHS 182103Z 27025KT 23/01 A2964 RMK A01 T02260010  RH  024%=      5-min Rain = 0
KAHS 182104Z 27022G32KT 23/01 A2964 RMK A01 T02250011  RH  024%=      5-min Rain = 0
KAHS 182105Z 27025KT 23/01 A2964 RMK A01 T02260011  RH  024%=      5-min Rain = 0
KAHS 182106Z 27025G30KT 23/01 A2964 RMK A01 T02260011  RH  024%=      5-min Rain = 0
KAHS 182107Z 27026G31KT 23/01 A2964 RMK A01 T02260012  RH  024%=      5-min Rain = 0
KAHS 182108Z 27024G33KT 23/01 A2964 RMK A01 T02250011  RH  024%=      5-min Rain = 0
KAHS 182109Z 27023KT 22/01 A2964 RMK A01 T02240012  RH  025%=      5-min Rain = 0
KAHS 182110Z 26023G28KT 22/01 A2964 RMK A01 T02230011  RH  025%=      5-min Rain = 0
KAHS 182111Z 27024KT 22/01 A2964 RMK A01 T02210010  RH  025%=      5-min Rain = 0
KAHS 182112Z 26026G33KT 22/01 A2964 RMK A01 T02200011  RH  025%=      5-min Rain = 0
KAHS 182113Z 26028G35KT 22/01 A2963 RMK A01 T02220013  RH  025%=      5-min Rain = 0
KAHS 182114Z 27024G30KT 22/01 A2964 RMK A01 T02240013  RH  025%=      5-min Rain = 0
KAHS 182115Z 27023G30KT 23/01 A2964 RMK A01 T02250014  RH  025%=      5-min Rain = 0
KAHS 182116Z 27017G22KT 23/02 A2964 RMK A01 T02260017  RH  025%=      5-min Rain = 0
KAHS 182117Z 26022G28KT 23/02 A2964 RMK A01 T02270017  RH  025%=      5-min Rain = 0
KAHS 182118Z 27024G30KT 23/02 A2964 RMK A01 T02260015  RH  025%=      5-min Rain = 0
KAHS 182119Z 27021KT 23/02 A2964 RMK A01 T02250015  RH  025%=      5-min Rain = 0
KAHS 182120Z 27025KT 22/02 A2964 RMK A01 T02240015  RH  025%=      5-min Rain = 0
KAHS 182121Z 28025G35KT 22/02 A2964 RMK A01 T02220015  RH  025%=      5-min Rain = 0
KAHS 182122Z 28027G36KT 22/01 A2964 RMK A01 T02210014  RH  025%=      5-min Rain = 0
KAHS 182123Z 29024G32KT 22/02 A2964 RMK A01 T02220015  RH  026%=      5-min Rain = 0
KAHS 182124Z 28023G28KT 22/01 A2964 RMK A01 T02220014  RH  025%=      5-min Rain = 0
KAHS 182125Z 29025G30KT 22/02 A2964 RMK A01 T02230015  RH  025%=      5-min Rain = 0
KAHS 182126Z 28022G27KT 22/02 A2964 RMK A01 T02240016  RH  025%=      5-min Rain = 0
KAHS 182127Z 27022G28KT 22/01 A2964 RMK A01 T02230014  RH  025%=      5-min Rain = 0
KAHS 182128Z 27021G27KT 22/02 A2965 RMK A01 T02210016  RH  026%=      5-min Rain = 0
KAHS 182129Z 28024G30KT 22/01 A2965 RMK A01 T02190014  RH  026%=      5-min Rain = 0
KAHS 182130Z 27019G26KT 22/02 A2965 RMK A01 T02170015  RH  026%=      5-min Rain = 0
KAHS 182131Z 27026G33KT 22/01 A2964 RMK A01 T02160012  RH  026%=      5-min Rain = 0
KAHS 182132Z 27026G32KT 22/01 A2964 RMK A01 T02150009  RH  025%=      5-min Rain = 0
KAHS 182133Z 27032G37KT 21/00 A2964 RMK A01 T02140004  RH  025%=      5-min Rain = 0
KAHS 182134Z 27026G34KT 21/00 A2964 RMK A01 T02140002  RH  024%=      5-min Rain = 0
KAHS 182135Z 27024G30KT 21/00 A2965 RMK A01 T02140004  RH  025%=      5-min Rain = 0
KAHS 182136Z 27029G37KT 21/00 A2964 RMK A01 T02130003  RH  025%=      5-min Rain = 0
KAHS 182137Z 28022G27KT 21/01 A2965 RMK A01 T02130006  RH  025%=      5-min Rain = 0
KAHS 182138Z 28028G34KT 21/01 A2964 RMK A01 T02130006  RH  025%=      5-min Rain = 0
KAHS 182139Z 28030KT 21/00 A2964 RMK A01 T02120004  RH  025%=      5-min Rain = 0
KAHS 182140Z 28024G30KT 21/00 A2964 RMK A01 T02110004  RH  025%=      5-min Rain = 0
KAHS 182141Z 28022G29KT 21/01 A2964 RMK A01 T02110006  RH  026%=      5-min Rain = 0
KAHS 182142Z 28026G33KT 21/01 A2965 RMK A01 T02100005  RH  026%=      5-min Rain = 0
KAHS 182143Z 28029G35KT 21/00 A2965 RMK A01 T02100003  RH  025%=      5-min Rain = 0
KAHS 182144Z 28026G35KT 21/00 A2965 RMK A01 T02110003  RH  025%=      5-min Rain = 0
KAHS 182145Z 27026G33KT 21/01 A2965 RMK A01 T02110006  RH  025%=      5-min Rain = 0
KAHS 182146Z 27025KT 21/00 A2965 RMK A01 T02100004  RH  025%=      5-min Rain = 0
KAHS 182147Z 28027G32KT 21/01 A2965 RMK A01 T02100005  RH  026%=      5-min Rain = 0
KAHS 182148Z 29024G30KT 21/01 A2965 RMK A01 T02090006  RH  026%=      5-min Rain = 0
KAHS 182149Z 28025G30KT 21/01 A2965 RMK A01 T02080008  RH  026%=      5-min Rain = 0
KAHS 182150Z 28021G27KT 21/01 A2965 RMK A01 T02090008  RH  026%=      5-min Rain = 0
KAHS 182151Z 28020G25KT 21/01 A2965 RMK A01 T02090010  RH  027%=      5-min Rain = 0
KAHS 182152Z 28019KT 21/01 A2966 RMK A01 T02080011  RH  027%=      5-min Rain = 0
KAHS 182153Z 28017G22KT 21/01 A2966 RMK A01 T02080012  RH  027%=      5-min Rain = 0
KAHS 182154Z 28018G24KT 21/01 A2965 RMK A01 T02080012  RH  027%=      5-min Rain = 0
KAHS 182155Z 29020G28KT 21/01 A2965 RMK A01 T02070014  RH  028%=      5-min Rain = 0
KAHS 182156Z 29029G37KT 21/01 A2965 RMK A01 T02070011  RH  027%=      5-min Rain = 0
KAHS 182157Z 29025G32KT 21/01 A2965 RMK A01 T02060011  RH  027%=      5-min Rain = 0
KAHS 182158Z 29022G29KT 21/01 A2965 RMK A01 T02050014  RH  028%=      5-min Rain = 0
KAHS 182159Z 29028G34KT 21/01 A2965 RMK A01 T02050012  RH  028%=      5-min Rain = 0
KAHS 182200Z 28028KT 21/01 A2965 RMK A01 T02050010  RH  027%=      5-min Rain = 0
KAHS 182201Z 28025G32KT 20/01 A2965 RMK A01 T02040010  RH  027%=      5-min Rain = 0
KAHS 182202Z 28020G27KT 20/01 A2966 RMK A01 T02040013  RH  028%=      5-min Rain = 0
KAHS 182203Z 29024G30KT 20/01 A2966 RMK A01 T02030014  RH  028%=      5-min Rain = 0
KAHS 182204Z 28022G28KT 20/01 A2966 RMK A01 T02020014  RH  028%=      5-min Rain = 0
KAHS 182205Z 28022G27KT 20/02 A2966 RMK A01 T02020015  RH  029%=      5-min Rain = 0
KAHS 182206Z 28027G32KT 20/01 A2965 RMK A01 T02020014  RH  029%=      5-min Rain = 0
KAHS 182207Z 29022G31KT 20/01 A2966 RMK A01 T02020014  RH  029%=      5-min Rain = 0
KAHS 182208Z 28026KT 20/01 A2965 RMK A01 T02010014  RH  029%=      5-min Rain = 0
KAHS 182209Z 28025G33KT 20/01 A2965 RMK A01 T02010013  RH  029%=      5-min Rain = 0
KAHS 182210Z 28021G28KT 20/01 A2966 RMK A01 T02010014  RH  029%=      5-min Rain = 0
KAHS 182211Z 29022G28KT 20/02 A2966 RMK A01 T02010015  RH  029%=      5-min Rain = 0
KAHS 182212Z 28022G28KT 20/02 A2966 RMK A01 T02010015  RH  029%=      5-min Rain = 0
KAHS 182213Z 27019G24KT 20/02 A2966 RMK A01 T02010016  RH  029%=      5-min Rain = 0
KAHS 182214Z 28016G21KT 20/02 A2966 RMK A01 T02010019  RH  030%=      5-min Rain = 0
KAHS 182215Z 28016G22KT 20/02 A2966 RMK A01 T02010019  RH  030%=      5-min Rain = 0
KAHS 182216Z 28017G25KT 20/02 A2966 RMK A01 T02010020  RH  030%=      5-min Rain = 0
KAHS 182217Z 28020KT 20/02 A2966 RMK A01 T02010018  RH  030%=      5-min Rain = 0
KAHS 182218Z 28021KT 20/02 A2966 RMK A01 T02010018  RH  029%=      5-min Rain = 0
KAHS 182219Z 28021G30KT 20/02 A2966 RMK A01 T02010017  RH  029%=      5-min Rain = 0
KAHS 182220Z 28020KT 20/02 A2966 RMK A01 T02010017  RH  029%=      5-min Rain = 0
KAHS 182221Z 28018G25KT 20/02 A2966 RMK A01 T02010019  RH  030%=      5-min Rain = 0
KAHS 182222Z 27021G26KT 20/02 A2966 RMK A01 T02010018  RH  030%=      5-min Rain = 0
KAHS 182223Z 28018KT 20/02 A2966 RMK A01 T02000019  RH  030%=      5-min Rain = 0
KAHS 182224Z 28026G31KT 20/02 A2966 RMK A01 T01990018  RH  030%=      5-min Rain = 0
KAHS 182225Z 28018G23KT 20/02 A2966 RMK A01 T01990018  RH  030%=      5-min Rain = 0
KAHS 182226Z 28017G24KT 20/02 A2966 RMK A01 T01990020  RH  030%=      5-min Rain = 0
KAHS 182227Z 27021G28KT 20/02 A2966 RMK A01 T02000020  RH  030%=      5-min Rain = 0
KAHS 182228Z 26021KT 20/02 A2966 RMK A01 T02010020  RH  030%=      5-min Rain = 0
KAHS 182229Z 27021G26KT 20/02 A2966 RMK A01 T02020020  RH  030%=      5-min Rain = 0
KAHS 182230Z 28019G25KT 20/02 A2966 RMK A01 T02030021  RH  030%=      5-min Rain = 0
KAHS 182231Z 28021G26KT 20/02 A2966 RMK A01 T02040021  RH  030%=      5-min Rain = 0
KAHS 182232Z 28022G27KT 21/02 A2966 RMK A01 T02050019  RH  029%=      5-min Rain = 0
KAHS 182233Z 28021G27KT 20/02 A2966 RMK A01 T02040019  RH  029%=      5-min Rain = 0
KAHS 182234Z 28020KT 20/02 A2966 RMK A01 T02030017  RH  029%=      5-min Rain = 0
KAHS 182235Z 27020G27KT 20/02 A2966 RMK A01 T02030019  RH  029%=      5-min Rain = 0
KAHS 182236Z 27024KT 20/02 A2966 RMK A01 T02020017  RH  029%=      5-min Rain = 0
KAHS 182237Z 27021G26KT 20/02 A2966 RMK A01 T02010017  RH  029%=      5-min Rain = 0
KAHS 182238Z 28022KT 20/02 A2966 RMK A01 T02000016  RH  029%=      5-min Rain = 0
KAHS 182239Z 27020G28KT 20/02 A2966 RMK A01 T02000016  RH  029%=      5-min Rain = 0
KAHS 182240Z 28024KT 20/02 A2966 RMK A01 T01990016  RH  029%=      5-min Rain = 0
KAHS 182241Z 28021G26KT 20/02 A2966 RMK A01 T01990016  RH  029%=      5-min Rain = 0
KAHS 182242Z 27019KT 20/02 A2966 RMK A01 T02000017  RH  030%=      5-min Rain = 0
KAHS 182243Z 27017KT 20/02 A2966 RMK A01 T02000018  RH  030%=      5-min Rain = 0
KAHS 182244Z 27016G22KT 20/02 A2966 RMK A01 T02000019  RH  030%=      5-min Rain = 0
KAHS 182245Z 27018G25KT 20/02 A2966 RMK A01 T01990018  RH  030%=      5-min Rain = 0
KAHS 182246Z 27017G24KT 20/02 A2966 RMK A01 T01990017  RH  030%=      5-min Rain = 0
KAHS 182247Z 27019KT 20/02 A2966 RMK A01 T01990017  RH  030%=      5-min Rain = 0
KAHS 182248Z 28018G23KT 20/02 A2967 RMK A01 T01990017  RH  030%=      5-min Rain = 0
KAHS 182249Z 27017KT 20/02 A2967 RMK A01 T01980019  RH  030%=      5-min Rain = 0
KAHS 182250Z 27021G29KT 20/02 A2966 RMK A01 T01980019  RH  030%=      5-min Rain = 0
KAHS 182251Z 27020G25KT 20/02 A2967 RMK A01 T01970018  RH  030%=      5-min Rain = 0
KAHS 182252Z 27021KT 20/02 A2967 RMK A01 T01970018  RH  030%=      5-min Rain = 0
KAHS 182253Z 27016G23KT 20/02 A2967 RMK A01 T01970018  RH  030%=      5-min Rain = 0
KAHS 182254Z 27016KT 20/02 A2967 RMK A01 T01960020  RH  031%=      5-min Rain = 0
KAHS 182255Z 27017G22KT 20/02 A2967 RMK A01 T01960019  RH  031%=      5-min Rain = 0
KAHS 182256Z 27018KT 20/02 A2967 RMK A01 T01960019  RH  031%=      5-min Rain = 0
KAHS 182257Z 27019G24KT 20/02 A2967 RMK A01 T01960018  RH  031%=      5-min Rain = 0
KAHS 182258Z 27015KT 20/02 A2967 RMK A01 T01960019  RH  031%=      5-min Rain = 0
KAHS 182259Z 27018KT 20/02 A2967 RMK A01 T01950019  RH  031%=      5-min Rain = 0
KAHS 182300Z 27015KT 20/02 A2967 RMK A01 T01950019  RH  031%=      5-min Rain = 0
KAHS 182301Z 27017KT 20/02 A2967 RMK A01 T01950020  RH  031%=      5-min Rain = 0
KAHS 182302Z 27016G21KT 20/02 A2967 RMK A01 T01950019  RH  031%=      5-min Rain = 0
KAHS 182303Z 27017KT 20/02 A2967 RMK A01 T01950019  RH  031%=      5-min Rain = 0
KAHS 182304Z 27016G21KT 20/02 A2967 RMK A01 T01950019  RH  031%=      5-min Rain = 0
KAHS 182305Z 28015G21KT 19/02 A2968 RMK A01 T01940021  RH  032%=      5-min Rain = 0
KAHS 182306Z 28017KT 19/02 A2968 RMK A01 T01930021  RH  032%=      5-min Rain = 0
KAHS 182307Z 28016KT 19/02 A2967 RMK A01 T01930020  RH  032%=      5-min Rain = 0
KAHS 182308Z 28017G22KT 19/02 A2968 RMK A01 T01930020  RH  032%=      5-min Rain = 0
KAHS 182309Z 28020KT 19/02 A2967 RMK A01 T01920018  RH  031%=      5-min Rain = 0
KAHS 182310Z 28016G22KT 19/02 A2968 RMK A01 T01920017  RH  031%=      5-min Rain = 0
KAHS 182311Z 28020KT 19/02 A2967 RMK A01 T01910017  RH  031%=      5-min Rain = 0
KAHS 182312Z 28020KT 19/02 A2968 RMK A01 T01920016  RH  031%=      5-min Rain = 0
KAHS 182313Z 28017KT 19/02 A2968 RMK A01 T01910016  RH  031%=      5-min Rain = 0
KAHS 182314Z 28017KT 19/02 A2968 RMK A01 T01910016  RH  031%=      5-min Rain = 0
KAHS 182315Z 28015G20KT 19/02 A2968 RMK A01 T01900017  RH  031%=      5-min Rain = 0
KAHS 182316Z 27016KT 19/02 A2968 RMK A01 T01900017  RH  031%=      5-min Rain = 0
KAHS 182317Z 28014KT 19/02 A2968 RMK A01 T01900017  RH  031%=      5-min Rain = 0
KAHS 182318Z 28021G27KT 19/02 A2968 RMK A01 T01900016  RH  031%=      5-min Rain = 0
KAHS 182319Z 28018KT 19/02 A2968 RMK A01 T01900015  RH  031%=      5-min Rain = 0
KAHS 182320Z 28020G27KT 19/01 A2968 RMK A01 T01900014  RH  031%=      5-min Rain = 0
KAHS 182321Z 27020G26KT 19/01 A2968 RMK A01 T01900013  RH  031%=      5-min Rain = 0
KAHS 182322Z 28019KT 19/01 A2968 RMK A01 T01900013  RH  031%=      5-min Rain = 0
KAHS 182323Z 27016KT 19/01 A2969 RMK A01 T01890014  RH  031%=      5-min Rain = 0
KAHS 182324Z 27013G18KT 19/01 A2968 RMK A01 T01880014  RH  031%=      5-min Rain = 0
KAHS 182325Z 28018G23KT 19/01 A2968 RMK A01 T01880014  RH  031%=      5-min Rain = 0
KAHS 182326Z 28017KT 19/01 A2968 RMK A01 T01880013  RH  031%=      5-min Rain = 0
KAHS 182327Z 28019G25KT 19/01 A2969 RMK A01 T01880013  RH  031%=      5-min Rain = 0
KAHS 182328Z 28023KT 19/01 A2968 RMK A01 T01880010  RH  030%=      5-min Rain = 0
KAHS 182329Z 27017G23KT 19/01 A2968 RMK A01 T01880008  RH  030%=      5-min Rain = 0
KAHS 182330Z 28017KT 19/01 A2968 RMK A01 T01880011  RH  030%=      5-min Rain = 0
KAHS 182331Z 28016KT 19/01 A2968 RMK A01 T01870011  RH  031%=      5-min Rain = 0
KAHS 182332Z 28027G32KT 19/01 A2968 RMK A01 T01870006  RH  030%=      5-min Rain = 0
KAHS 182333Z 29020KT 19/00 A2968 RMK A01 T01870003  RH  029%=      5-min Rain = 0
KAHS 182334Z 29020G26KT 19/00 A2968 RMK A01 T01870001  RH  029%=      5-min Rain = 0
KAHS 182335Z 28022G28KT 19/00 A2968 RMK A01 T018700-0  RH  028%=      5-min Rain = 0
KAHS 182336Z 29024G29KT 19/M00 A2968 RMK A01 T01871002  RH  028%=      5-min Rain = 0
KAHS 182337Z 29019KT 19/M00 A2969 RMK A01 T01861002  RH  028%=      5-min Rain = 0
KAHS 182338Z 29022KT 19/M00 A2969 RMK A01 T01851003  RH  028%=      5-min Rain = 0
KAHS 182339Z 30021G29KT 18/M00 A2969 RMK A01 T01841003  RH  028%=      5-min Rain = 0
KAHS 182340Z 30028G35KT 18/M00 A2968 RMK A01 T01831003  RH  029%=      5-min Rain = 0
KAHS 182341Z 30021G28KT 18/M00 A2969 RMK A01 T01811003  RH  029%=      5-min Rain = 0
KAHS 182342Z 29021G26KT 18/M00 A2969 RMK A01 T01801001  RH  029%=      5-min Rain = 0
KAHS 182343Z 29017G23KT 18/M00 A2969 RMK A01 T01791001  RH  030%=      5-min Rain = 0
KAHS 182344Z 29022G32KT 18/M00 A2968 RMK A01 T01791003  RH  029%=      5-min Rain = 0
KAHS 182345Z 29019G27KT 18/M00 A2969 RMK A01 T01791003  RH  029%=      5-min Rain = 0
KAHS 182346Z 29020G27KT 18/M00 A2968 RMK A01 T01781002  RH  029%=      5-min Rain = 0
KAHS 182347Z 29018G24KT 18/M00 A2968 RMK A01 T01781001  RH  030%=      5-min Rain = 0
KAHS 182348Z 29022KT 18/M00 A2968 RMK A01 T01781001  RH  030%=      5-min Rain = 0
KAHS 182349Z 29019G26KT 18/M00 A2969 RMK A01 T01781001  RH  030%=      5-min Rain = 0
KAHS 182350Z 28018KT 18/M00 A2968 RMK A01 T01771001  RH  030%=      5-min Rain = 0
KAHS 182351Z 28014G20KT 18/00 A2969 RMK A01 T017700-0  RH  030%=      5-min Rain = 0
KAHS 182352Z 28019KT 18/00 A2968 RMK A01 T017600-0  RH  030%=      5-min Rain = 0
KAHS 182353Z 29016G21KT 18/00 A2969 RMK A01 T01760000  RH  030%=      5-min Rain = 0
KAHS 182354Z 29020G25KT 18/00 A2969 RMK A01 T01760001  RH  031%=      5-min Rain = 0
KAHS 182355Z 29017G22KT 18/00 A2969 RMK A01 T01760003  RH  031%=      5-min Rain = 0
KAHS 182356Z 30018KT 18/01 A2969 RMK A01 T01750007  RH  032%=      5-min Rain = 0
KAHS 182357Z 30017KT 17/01 A2969 RMK A01 T01730008  RH  033%=      5-min Rain = 0
KAHS 182358Z 30018G24KT 17/01 A2969 RMK A01 T01710012  RH  034%=      5-min Rain = 0
KAHS 182359Z 29024G29KT 17/02 A2969 RMK A01 T01700017  RH  036%=      5-min Rain = 0
KAHS 190000Z 29026G31KT 17/02 A2969 RMK A01 T01690020  RH  037%=      5-min Rain = 0
KAHS 190001Z 29025G34KT 17/02 A2969 RMK A01 T01670020  RH  037%=      5-min Rain = 0
KAHS 190002Z 27030G35KT 17/01 A2968 RMK A01 T01680013  RH  035%=      5-min Rain = 0
KAHS 190003Z 26024G30KT 17/01 A2969 RMK A01 T01680011  RH  034%=      5-min Rain = 0
KAHS 190004Z 27023G30KT 17/01 A297 RMK A01 T01680011  RH  035%=      5-min Rain = 0
KAHS 190005Z 26022G27KT 17/01 A297 RMK A01 T01690006  RH  033%=      5-min Rain = 0
KAHS 190006Z 26018G25KT 17/01 A297 RMK A01 T01700006  RH  033%=      5-min Rain = 0
KAHS 190007Z 25018KT 17/01 A297 RMK A01 T01700005  RH  033%=      5-min Rain = 0
KAHS 190008Z 26017KT 17/00 A2969 RMK A01 T01710004  RH  032%=      5-min Rain = 0
KAHS 190009Z 24016KT 17/01 A2969 RMK A01 T01700005  RH  033%=      5-min Rain = 0
KAHS 190010Z 27020KT 17/00 A2969 RMK A01 T01700003  RH  032%=      5-min Rain = 0
KAHS 190011Z 25020G25KT 17/M00 A2969 RMK A01 T01711004  RH  030%=      5-min Rain = 0
KAHS 190012Z 26018G23KT 17/M01 A297 RMK A01 T01731009  RH  029%=      5-min Rain = 0
KAHS 190013Z 27017G23KT 17/M01 A297 RMK A01 T01731010  RH  029%=      5-min Rain = 0
KAHS 190014Z 26018KT 17/M01 A297 RMK A01 T01731008  RH  029%=      5-min Rain = 0
KAHS 190015Z 25015KT 17/M01 A297 RMK A01 T01731008  RH  029%=      5-min Rain = 0
KAHS 190016Z 25020G26KT 17/M01 A297 RMK A01 T01731009  RH  029%=      5-min Rain = 0
KAHS 190017Z 25020G25KT 17/M01 A2969 RMK A01 T01741010  RH  029%=      5-min Rain = 0
KAHS 190018Z 25024G29KT 17/M01 A297 RMK A01 T01741013  RH  028%=      5-min Rain = 0
KAHS 190019Z 25020G27KT 17/M01 A2969 RMK A01 T01741013  RH  028%=      5-min Rain = 0
KAHS 190020Z 25024G33KT 18/M02 A2969 RMK A01 T01751020  RH  026%=      5-min Rain = 0
KAHS 190021Z 25020G27KT 18/M03 A2969 RMK A01 T01761028  RH  025%=      5-min Rain = 0
KAHS 190022Z 26016G21KT 18/M02 A2969 RMK A01 T01761022  RH  026%=      5-min Rain = 0
KAHS 190023Z 26017KT 17/M02 A2969 RMK A01 T01741017  RH  027%=      5-min Rain = 0
KAHS 190024Z 25018G23KT 17/M02 A2967 RMK A01 T01741022  RH  026%=      5-min Rain = 0
KAHS 190025Z 27017G22KT 17/M03 A2967 RMK A01 T01741028  RH  025%=      5-min Rain = 0
KAHS 190026Z 28016KT 17/M03 A2967 RMK A01 T01731026  RH  026%=      5-min Rain = 0
KAHS 190027Z 28021G28KT 17/M03 A2967 RMK A01 T01731033  RH  024%=      5-min Rain = 0
KAHS 190028Z 26018G23KT 17/M04 A2967 RMK A01 T01741036  RH  024%=      5-min Rain = 0
KAHS 190029Z 26017KT 17/M03 A2966 RMK A01 T01741033  RH  024%=      5-min Rain = 0
KAHS 190030Z 26015G20KT 17/M03 A2966 RMK A01 T01731031  RH  025%=      5-min Rain = 0
KAHS 190031Z 25011KT 17/M03 A2966 RMK A01 T01721030  RH  025%=      5-min Rain = 0
KAHS 190032Z 25011G17KT 17/M03 A2966 RMK A01 T01701029  RH  025%=      5-min Rain = 0
KAHS 190033Z 26015G21KT 17/M03 A2966 RMK A01 T01701034  RH  025%=      5-min Rain = 0
KAHS 190034Z 26018G25KT 17/M04 A2966 RMK A01 T01711039  RH  023%=      5-min Rain = 0
KAHS 190035Z 26018G23KT 17/M04 A2967 RMK A01 T01721043  RH  023%=      5-min Rain = 0
KAHS 190036Z 26017KT 17/M04 A2967 RMK A01 T01731044  RH  022%=      5-min Rain = 0
KAHS 190037Z 26016KT 17/M04 A2968 RMK A01 T01731042  RH  023%=      5-min Rain = 0
KAHS 190038Z 26019G26KT 17/M04 A2969 RMK A01 T01721040  RH  023%=      5-min Rain = 0
KAHS 190039Z 26017KT 17/M04 A2969 RMK A01 T01721039  RH  023%=      5-min Rain = 0
KAHS 190040Z 25016KT 17/M04 A297 RMK A01 T01721038  RH  023%=      5-min Rain = 0
KAHS 190041Z 26016KT 17/M04 A297 RMK A01 T01721036  RH  024%=      5-min Rain = 0
KAHS 190042Z 25019G25KT 17/M04 A2971 RMK A01 T01711036  RH  024%=      5-min Rain = 0
KAHS 190043Z 26020G25KT 17/M04 A2971 RMK A01 T01721037  RH  024%=      5-min Rain = 0
KAHS 190044Z 26017G22KT 17/M04 A2971 RMK A01 T01721037  RH  024%=      5-min Rain = 0
KAHS 190045Z 26017G23KT 17/M04 A2972 RMK A01 T01711036  RH  024%=      5-min Rain = 0
KAHS 190046Z 26017KT 17/M04 A2972 RMK A01 T01711037  RH  024%=      5-min Rain = 0
KAHS 190047Z 26020G27KT 17/M04 A2972 RMK A01 T01711036  RH  024%=      5-min Rain = 0
KAHS 190048Z 26022KT 17/M04 A2972 RMK A01 T01721037  RH  024%=      5-min Rain = 0
KAHS 190049Z 26018G23KT 17/M04 A2972 RMK A01 T01711035  RH  024%=      5-min Rain = 0
KAHS 190050Z 26017G23KT 17/M04 A2972 RMK A01 T01711035  RH  024%=      5-min Rain = 0
KAHS 190051Z 26018G26KT 17/M03 A2972 RMK A01 T01701034  RH  024%=      5-min Rain = 0
KAHS 190052Z 26023G28KT 17/M04 A2972 RMK A01 T01711036  RH  024%=      5-min Rain = 0
KAHS 190053Z 27021G26KT 17/M04 A2972 RMK A01 T01711038  RH  024%=      5-min Rain = 0
KAHS 190054Z 27019KT 17/M04 A2972 RMK A01 T01711036  RH  024%=      5-min Rain = 0
KAHS 190055Z 26022G32KT 17/M04 A2972 RMK A01 T01701037  RH  024%=      5-min Rain = 0
KAHS 190056Z 26027G36KT 17/M04 A2971 RMK A01 T01711041  RH  023%=      5-min Rain = 0
KAHS 190057Z 26035G42KT 17/M05 A297 RMK A01 T01721046  RH  022%=      5-min Rain = 0
KAHS 190058Z 26024G31KT 17/M05 A2971 RMK A01 T01731051  RH  021%=      5-min Rain = 0
KAHS 190059Z 27023G29KT 17/M05 A2971 RMK A01 T01721046  RH  022%=      5-min Rain = 0
KAHS 190100Z 27022KT 17/M04 A297 RMK A01 T01701044  RH  023%=      5-min Rain = 0
KAHS 190101Z 26022G28KT 17/M04 A297 RMK A01 T01681044  RH  023%=      5-min Rain = 0
KAHS 190102Z 26022KT 17/M04 A297 RMK A01 T01671044  RH  023%=      5-min Rain = 0
KAHS 190103Z 26020KT 17/M04 A2971 RMK A01 T01661044  RH  023%=      5-min Rain = 0
KAHS 190104Z 26018G23KT 17/M04 A2971 RMK A01 T01661043  RH  024%=      5-min Rain = 0
KAHS 190105Z 26019G24KT 17/M04 A2971 RMK A01 T01651043  RH  024%=      5-min Rain = 0
KAHS 190106Z 27020KT 17/M04 A2971 RMK A01 T01651043  RH  024%=      5-min Rain = 0
KAHS 190107Z 27017KT 17/M04 A2972 RMK A01 T01651043  RH  024%=      5-min Rain = 0
KAHS 190108Z 27017KT 16/M04 A2972 RMK A01 T01641043  RH  024%=      5-min Rain = 0
KAHS 190109Z 28019KT 16/M05 A2972 RMK A01 T01641046  RH  023%=      5-min Rain = 0
KAHS 190110Z 27018G23KT 16/M05 A2972 RMK A01 T01641048  RH  023%=      5-min Rain = 0
KAHS 190111Z 27018KT 16/M05 A2972 RMK A01 T01641048  RH  023%=      5-min Rain = 0
KAHS 190112Z 27015KT 16/M05 A2972 RMK A01 T01631048  RH  023%=      5-min Rain = 0
KAHS 190113Z 26015G20KT 16/M05 A2972 RMK A01 T01621046  RH  023%=      5-min Rain = 0
KAHS 190114Z 27017KT 16/M05 A2972 RMK A01 T01621046  RH  024%=      5-min Rain = 0
KAHS 190115Z 27018G23KT 16/M05 A2971 RMK A01 T01621046  RH  024%=      5-min Rain = 0
KAHS 190116Z 26015G21KT 16/M05 A2971 RMK A01 T01621046  RH  024%=      5-min Rain = 0
KAHS 190117Z 27018G24KT 16/M05 A2972 RMK A01 T01621046  RH  024%=      5-min Rain = 0
KAHS 190118Z 27022KT 16/M05 A2971 RMK A01 T01621047  RH  023%=      5-min Rain = 0
KAHS 190119Z 27017G23KT 16/M05 A2972 RMK A01 T01631047  RH  023%=      5-min Rain = 0
KAHS 190120Z 27017KT 16/M05 A2972 RMK A01 T01621047  RH  023%=      5-min Rain = 0
KAHS 190121Z 27017KT 16/M05 A2972 RMK A01 T01621047  RH  024%=      5-min Rain = 0
KAHS 190122Z 27018KT 16/M05 A2971 RMK A01 T01611048  RH  023%=      5-min Rain = 0
KAHS 190123Z 27016G21KT 16/M05 A2971 RMK A01 T01601048  RH  024%=      5-min Rain = 0
KAHS 190124Z 27014G19KT 16/M05 A2971 RMK A01 T01591048  RH  024%=      5-min Rain = 0
KAHS 190125Z 27016G22KT 16/M05 A2971 RMK A01 T01581048  RH  024%=      5-min Rain = 0
KAHS 190126Z 27016KT 16/M05 A2971 RMK A01 T01581048  RH  024%=      5-min Rain = 0
KAHS 190127Z 27015KT 16/M05 A2971 RMK A01 T01581048  RH  024%=      5-min Rain = 0
KAHS 190128Z 27016KT 16/M05 A2971 RMK A01 T01571049  RH  024%=      5-min Rain = 0
KAHS 190129Z 26014KT 16/M05 A2971 RMK A01 T01571049  RH  024%=      5-min Rain = 0
KAHS 190130Z 27014KT 16/M05 A2971 RMK A01 T01561049  RH  024%=      5-min Rain = 0
KAHS 190131Z 27013KT 16/M05 A2971 RMK A01 T01551048  RH  024%=      5-min Rain = 0
KAHS 190132Z 27014KT 16/M05 A2971 RMK A01 T01551046  RH  025%=      5-min Rain = 0
KAHS 190133Z 27014KT 15/M05 A2971 RMK A01 T01541046  RH  025%=      5-min Rain = 0
KAHS 190134Z 26015KT 15/M05 A2971 RMK A01 T01531046  RH  025%=      5-min Rain = 0
KAHS 190135Z 27013KT 15/M05 A2971 RMK A01 T01531046  RH  025%=      5-min Rain = 0
KAHS 190136Z 27017G22KT 15/M05 A2971 RMK A01 T01531045  RH  025%=      5-min Rain = 0
KAHS 190137Z 27015KT 15/M05 A2971 RMK A01 T01541045  RH  025%=      5-min Rain = 0
KAHS 190138Z 26014G20KT 15/M04 A2971 RMK A01 T01531044  RH  025%=      5-min Rain = 0
KAHS 190139Z 27017KT 15/M04 A2971 RMK A01 T01531044  RH  025%=      5-min Rain = 0
KAHS 190140Z 26016G21KT 15/M04 A2971 RMK A01 T01531044  RH  025%=      5-min Rain = 0
KAHS 190141Z 26016KT 15/M04 A2971 RMK A01 T01531044  RH  026%=      5-min Rain = 0
KAHS 190142Z 26015KT 15/M04 A2971 RMK A01 T01521043  RH  026%=      5-min Rain = 0
KAHS 190143Z 27014KT 15/M04 A2971 RMK A01 T01521043  RH  026%=      5-min Rain = 0
KAHS 190144Z 26013KT 15/M04 A2971 RMK A01 T01511042  RH  026%=      5-min Rain = 0
KAHS 190145Z 26014KT 15/M04 A2971 RMK A01 T01501043  RH  026%=      5-min Rain = 0
KAHS 190146Z 26014KT 15/M04 A2971 RMK A01 T01501042  RH  026%=      5-min Rain = 0
KAHS 190147Z 27014KT 15/M04 A2971 RMK A01 T01501042  RH  026%=      5-min Rain = 0
KAHS 190148Z 26014KT 15/M04 A2971 RMK A01 T01501042  RH  026%=      5-min Rain = 0
KAHS 190149Z 27013KT 15/M04 A2971 RMK A01 T01491042  RH  027%=      5-min Rain = 0
KAHS 190150Z 26014KT 15/M04 A2971 RMK A01 T01481041  RH  027%=      5-min Rain = 0
KAHS 190151Z 26012KT 15/M04 A2971 RMK A01 T01481042  RH  027%=      5-min Rain = 0
KAHS 190152Z 26013KT 15/M04 A2971 RMK A01 T01471042  RH  027%=      5-min Rain = 0
KAHS 190153Z 27012G17KT 15/M04 A2971 RMK A01 T01461041  RH  027%=      5-min Rain = 0
KAHS 190154Z 26012KT 15/M04 A2971 RMK A01 T01461042  RH  027%=      5-min Rain = 0
KAHS 190155Z 26015KT 15/M04 A2971 RMK A01 T01461042  RH  027%=      5-min Rain = 0
KAHS 190156Z 26012KT 15/M04 A2971 RMK A01 T01461042  RH  027%=      5-min Rain = 0
KAHS 190157Z 26013KT 15/M04 A2971 RMK A01 T01451042  RH  027%=      5-min Rain = 0
KAHS 190158Z 27011KT 15/M04 A2971 RMK A01 T01451042  RH  027%=      5-min Rain = 0
KAHS 190159Z 26011KT 14/M04 A2971 RMK A01 T01431041  RH  028%=      5-min Rain = 0
KAHS 190200Z 26012KT 14/M04 A2971 RMK A01 T01431041  RH  028%=      5-min Rain = 0
KAHS 190201Z 26011KT 14/M04 A2971 RMK A01 T01431041  RH  028%=      5-min Rain = 0
KAHS 190202Z 26010KT 14/M04 A2971 RMK A01 T01411041  RH  028%=      5-min Rain = 0
KAHS 190203Z 26014G20KT 14/M04 A2971 RMK A01 T01411041  RH  028%=      5-min Rain = 0
KAHS 190204Z 27017KT 14/M04 A2971 RMK A01 T01431043  RH  027%=      5-min Rain = 0
KAHS 190205Z 26014KT 15/M04 A2971 RMK A01 T01451044  RH  027%=      5-min Rain = 0
KAHS 190206Z 26014KT 15/M04 A2971 RMK A01 T01451044  RH  027%=      5-min Rain = 0
KAHS 190207Z 27013KT 14/M04 A2971 RMK A01 T01441043  RH  027%=      5-min Rain = 0
KAHS 190208Z 27015G21KT 14/M04 A2971 RMK A01 T01431043  RH  027%=      5-min Rain = 0
KAHS 190209Z 28019KT 14/M05 A2971 RMK A01 T01441045  RH  027%=      5-min Rain = 0
KAHS 190210Z 27017KT 15/M05 A2971 RMK A01 T01461045  RH  026%=      5-min Rain = 0
KAHS 190211Z 27016KT 15/M05 A2971 RMK A01 T01461045  RH  027%=      5-min Rain = 0
KAHS 190212Z 27015KT 15/M04 A2972 RMK A01 T01451044  RH  027%=      5-min Rain = 0
KAHS 190213Z 28015KT 14/M04 A2971 RMK A01 T01441044  RH  027%=      5-min Rain = 0
KAHS 190214Z 27014KT 14/M04 A2972 RMK A01 T01441044  RH  027%=      5-min Rain = 0
KAHS 190215Z 27013G18KT 14/M04 A2972 RMK A01 T01431043  RH  027%=      5-min Rain = 0
KAHS 190216Z 27016KT 14/M04 A2972 RMK A01 T01421044  RH  027%=      5-min Rain = 0
KAHS 190217Z 27017G24KT 14/M04 A2972 RMK A01 T01431044  RH  027%=      5-min Rain = 0
KAHS 190218Z 27017KT 14/M04 A2972 RMK A01 T01431044  RH  027%=      5-min Rain = 0
KAHS 190219Z 27015KT 14/M04 A2972 RMK A01 T01441044  RH  027%=      5-min Rain = 0
KAHS 190220Z 28020KT 14/M04 A2972 RMK A01 T01431042  RH  027%=      5-min Rain = 0
KAHS 190221Z 28023G31KT 14/M04 A2972 RMK A01 T01441042  RH  027%=      5-min Rain = 0
KAHS 190222Z 30025G34KT 15/M04 A2973 RMK A01 T01451041  RH  027%=      5-min Rain = 0
KAHS 190223Z 32037G45KT 14/M03 A2973 RMK A01 T01411032  RH  030%=      5-min Rain = 0
KAHS 190224Z 32033KT 13/M01 A2974 RMK A01 T01261010  RH  039%=      5-min Rain = 0
KAHS 190225Z 32032G38KT 12/M00 A2974 RMK A01 T01171003  RH  044%=      5-min Rain = 0
KAHS 190226Z 32031G36KT 11/00 A2975 RMK A01 T01120001  RH  046%=      5-min Rain = 0
KAHS 190227Z 33030G35KT 11/00 A2976 RMK A01 T01080002  RH  048%=      5-min Rain = 0
KAHS 190228Z 33032G41KT 11/00 A2976 RMK A01 T01050002  RH  049%=      5-min Rain = 0
KAHS 190229Z 32024G30KT 10/00 A2977 RMK A01 T01030002  RH  049%=      5-min Rain = 0
KAHS 190230Z 32025G30KT 10/00 A2977 RMK A01 T01010001  RH  050%=      5-min Rain = 0
KAHS 190231Z 33035G42KT 10/00 A2977 RMK A01 T009800-0  RH  050%=      5-min Rain = 0
KAHS 190232Z 33027G33KT 10/M00 A2978 RMK A01 T00961001  RH  051%=      5-min Rain = 0
KAHS 190233Z 33033G43KT 09/M00 A2978 RMK A01 T00941001  RH  051%=      5-min Rain = 0
KAHS 190234Z 33030G35KT 09/M00 A2978 RMK A01 T00931001  RH  052%=      5-min Rain = 0
KAHS 190235Z 33028G33KT 09/M00 A2979 RMK A01 T00921001  RH  052%=      5-min Rain = 0
KAHS 190236Z 33030G37KT 09/00 A2979 RMK A01 T009100-0  RH  053%=      5-min Rain = 0
KAHS 190237Z 33031G37KT 09/00 A2979 RMK A01 T009000-0  RH  053%=      5-min Rain = 0
KAHS 190238Z 34028G37KT 09/00 A298 RMK A01 T00890000  RH  054%=      5-min Rain = 0
KAHS 190239Z 33029G34KT 09/00 A298 RMK A01 T00870000  RH  054%=      5-min Rain = 0
KAHS 190240Z 34027G35KT 09/00 A2981 RMK A01 T00860001  RH  055%=      5-min Rain = 0
KAHS 190241Z 33028G37KT 09/00 A2981 RMK A01 T00860001  RH  055%=      5-min Rain = 0
KAHS 190242Z 33025G32KT 09/00 A2981 RMK A01 T00850001  RH  056%=      5-min Rain = 0
KAHS 190243Z 33026G31KT 08/00 A2981 RMK A01 T00840001  RH  056%=      5-min Rain = 0
KAHS 190244Z 33027G34KT 08/00 A2981 RMK A01 T00830001  RH  056%=      5-min Rain = 0
KAHS 190245Z 33026KT 08/00 A2981 RMK A01 T00830000  RH  056%=      5-min Rain = 0
KAHS 190246Z 32035G45KT 08/00 A2981 RMK A01 T008100-0  RH  056%=      5-min Rain = 0
KAHS 190247Z 32033G39KT 08/M00 A2981 RMK A01 T00791001  RH  057%=      5-min Rain = 0
KAHS 190248Z 33031G42KT 08/M00 A2982 RMK A01 T00781001  RH  057%=      5-min Rain = 0
KAHS 190249Z 33032G39KT 08/M00 A2982 RMK A01 T00771001  RH  058%=      5-min Rain = 0
KAHS 190250Z 33032G40KT 08/M00 A2982 RMK A01 T00761001  RH  058%=      5-min Rain = 0
KAHS 190251Z 33030G41KT 08/M00 A2982 RMK A01 T00761001  RH  058%=      5-min Rain = 0
KAHS 190252Z 33033G41KT 08/M00 A2981 RMK A01 T00751001  RH  059%=      5-min Rain = 0
KAHS 190253Z 33026G34KT 07/M00 A2982 RMK A01 T00741001  RH  059%=      5-min Rain = 0
KAHS 190254Z 33026G32KT 07/M00 A2981 RMK A01 T00741001  RH  059%=      5-min Rain = 0
KAHS 190255Z 33028G36KT 07/M00 A2981 RMK A01 T00741001  RH  059%=      5-min Rain = 0
KAHS 190256Z 34029G35KT 07/M00 A2981 RMK A01 T00741001  RH  059%=      5-min Rain = 0
KAHS 190257Z 34029G36KT 07/M00 A2981 RMK A01 T00741001  RH  059%=      5-min Rain = 0
KAHS 190258Z 34026G31KT 07/M00 A2982 RMK A01 T00731001  RH  059%=      5-min Rain = 0
KAHS 190259Z 34029G37KT 07/M00 A2981 RMK A01 T00731001  RH  059%=      5-min Rain = 0
KAHS 190300Z 34024G29KT 07/M00 A2981 RMK A01 T00721001  RH  060%=      5-min Rain = 0
KAHS 190301Z 34022G27KT 07/M00 A2981 RMK A01 T00721001  RH  060%=      5-min Rain = 0
KAHS 190302Z 34022KT 07/M00 A2982 RMK A01 T00711001  RH  060%=      5-min Rain = 0
KAHS 190303Z 34025G35KT 07/M00 A2982 RMK A01 T00711001  RH  060%=      5-min Rain = 0
KAHS 190304Z 34022G27KT 07/M00 A2982 RMK A01 T00711001  RH  060%=      5-min Rain = 0
KAHS 190305Z 34024G31KT 07/M00 A2982 RMK A01 T00701002  RH  060%=      5-min Rain = 0
KAHS 190306Z 34024KT 07/M00 A2982 RMK A01 T00701002  RH  060%=      5-min Rain = 0
KAHS 190307Z 34019KT 07/M00 A2983 RMK A01 T00691002  RH  061%=      5-min Rain = 0
KAHS 190308Z 33020KT 07/M00 A2983 RMK A01 T00691002  RH  061%=      5-min Rain = 0
KAHS 190309Z 33020G25KT 07/M00 A2983 RMK A01 T00681001  RH  061%=      5-min Rain = 0
KAHS 190310Z 33023G30KT 07/M00 A2983 RMK A01 T00681002  RH  061%=      5-min Rain = 0
KAHS 190311Z 33025KT 07/M00 A2983 RMK A01 T00681002  RH  061%=      5-min Rain = 0
KAHS 190312Z 33024G30KT 07/M00 A2984 RMK A01 T00671002  RH  061%=      5-min Rain = 0
KAHS 190313Z 33025G31KT 07/M00 A2984 RMK A01 T00671002  RH  061%=      5-min Rain = 0
KAHS 190314Z 33024G30KT 07/M00 A2984 RMK A01 T00671002  RH  061%=      5-min Rain = 0
KAHS 190315Z 33024KT 07/M00 A2984 RMK A01 T00671002  RH  061%=      5-min Rain = 0
KAHS 190316Z 33022G28KT 07/M00 A2985 RMK A01 T00671002  RH  062%=      5-min Rain = 0
KAHS 190317Z 33022KT 07/M00 A2985 RMK A01 T00671002  RH  062%=      5-min Rain = 0
KAHS 190318Z 33022KT 07/M00 A2985 RMK A01 T00661002  RH  062%=      5-min Rain = 0
KAHS 190319Z 33022G27KT 07/M00 A2985 RMK A01 T00661002  RH  062%=      5-min Rain = 0
KAHS 190320Z 34024G35KT 07/M00 A2985 RMK A01 T00651002  RH  062%=      5-min Rain = 0
KAHS 190321Z 34028G36KT 06/M00 A2984 RMK A01 T00641002  RH  062%=      5-min Rain = 0
KAHS 190322Z 35026G31KT 06/M00 A2985 RMK A01 T00641003  RH  063%=      5-min Rain = 0
KAHS 190323Z 34026KT 06/M00 A2985 RMK A01 T00631003  RH  063%=      5-min Rain = 0
KAHS 190324Z 34024G30KT 06/M00 A2985 RMK A01 T00631003  RH  063%=      5-min Rain = 0
KAHS 190325Z 34024G30KT 06/M00 A2985 RMK A01 T00621003  RH  063%=      5-min Rain = 0
KAHS 190326Z 34023G30KT 06/M00 A2985 RMK A01 T00621003  RH  063%=      5-min Rain = 0
KAHS 190327Z 34027G33KT 06/M00 A2985 RMK A01 T00621003  RH  063%=      5-min Rain = 0
KAHS 190328Z 34022G27KT 06/M00 A2985 RMK A01 T00621003  RH  063%=      5-min Rain = 0
KAHS 190329Z 34027G32KT 06/M00 A2985 RMK A01 T00621003  RH  063%=      5-min Rain = 0
KAHS 190330Z 34025G31KT 06/M00 A2986 RMK A01 T00621003  RH  063%=      5-min Rain = 0
KAHS 190331Z 34023KT 06/M00 A2986 RMK A01 T00621003  RH  063%=      5-min Rain = 0
KAHS 190332Z 34024G33KT 06/M00 A2986 RMK A01 T00621003  RH  063%=      5-min Rain = 0
KAHS 190333Z 34024G29KT 06/M00 A2986 RMK A01 T00621003  RH  063%=      5-min Rain = 0
KAHS 190334Z 34022G29KT 06/M00 A2986 RMK A01 T00621002  RH  063%=      5-min Rain = 0
KAHS 190335Z 34023KT 06/M00 A2987 RMK A01 T00621002  RH  064%=      5-min Rain = 0
KAHS 190336Z 33017G22KT 06/M00 A2987 RMK A01 T00611002  RH  064%=      5-min Rain = 0
KAHS 190337Z 34018G23KT 06/M00 A2987 RMK A01 T00611002  RH  064%=      5-min Rain = 0
KAHS 190338Z 34021KT 06/M00 A2987 RMK A01 T00611002  RH  064%=      5-min Rain = 0
KAHS 190339Z 33020KT 06/M00 A2987 RMK A01 T00611002  RH  064%=      5-min Rain = 0
KAHS 190340Z 34019G24KT 06/M00 A2988 RMK A01 T00611002  RH  064%=      5-min Rain = 0
KAHS 190341Z 34021G26KT 06/M00 A2988 RMK A01 T00611002  RH  064%=      5-min Rain = 0
KAHS 190342Z 34018KT 06/M00 A2988 RMK A01 T00611003  RH  064%=      5-min Rain = 0
KAHS 190343Z 33019G25KT 06/M00 A2988 RMK A01 T00611002  RH  064%=      5-min Rain = 0
KAHS 190344Z 34019G24KT 06/M00 A2988 RMK A01 T00611002  RH  064%=      5-min Rain = 0
KAHS 190345Z 34018G25KT 06/M00 A2988 RMK A01 T00611002  RH  064%=      5-min Rain = 0
KAHS 190346Z 34020KT 06/M00 A2989 RMK A01 T00611002  RH  064%=      5-min Rain = 0
KAHS 190347Z 34018KT 06/M00 A2989 RMK A01 T00611002  RH  064%=      5-min Rain = 0
KAHS 190348Z 34019KT 06/M00 A2989 RMK A01 T00611002  RH  064%=      5-min Rain = 0
KAHS 190349Z 34019G25KT 06/M00 A2989 RMK A01 T00621001  RH  064%=      5-min Rain = 0
KAHS 190350Z 33016G23KT 06/M00 A299 RMK A01 T00621001  RH  064%=      5-min Rain = 0
KAHS 190351Z 33022KT 06/M00 A2989 RMK A01 T00631001  RH  064%=      5-min Rain = 0
KAHS 190352Z 33018G23KT 06/M00 A299 RMK A01 T00631001  RH  063%=      5-min Rain = 0
KAHS 190353Z 33021G27KT 06/M00 A299 RMK A01 T00631002  RH  063%=      5-min Rain = 0
KAHS 190354Z 34019G25KT 06/M00 A299 RMK A01 T00631002  RH  063%=      5-min Rain = 0
KAHS 190355Z 34020KT 06/M00 A299 RMK A01 T00631002  RH  063%=      5-min Rain = 0
KAHS 190356Z 34018G24KT 06/M00 A299 RMK A01 T00631002  RH  063%=      5-min Rain = 0
KAHS 190357Z 34022G27KT 06/M00 A299 RMK A01 T00631002  RH  063%=      5-min Rain = 0
KAHS 190358Z 34024G32KT 06/M00 A299 RMK A01 T00631003  RH  063%=      5-min Rain = 0
KAHS 190359Z 34022G27KT 06/M00 A2991 RMK A01 T00621003  RH  063%=      5-min Rain = 0
KAHS 190400Z 35020G25KT 06/M00 A2991 RMK A01 T00621003  RH  063%=      5-min Rain = 0
KAHS 190401Z 34024G32KT 06/M00 A2991 RMK A01 T00611004  RH  063%=      5-min Rain = 0
KAHS 190402Z 34023G29KT 06/M00 A2991 RMK A01 T00611004  RH  063%=      5-min Rain = 0
KAHS 190403Z 34025G31KT 06/M01 A2991 RMK A01 T00601005  RH  063%=      5-min Rain = 0
KAHS 190404Z 34022G28KT 06/M01 A2991 RMK A01 T00601006  RH  063%=      5-min Rain = 0
KAHS 190405Z 34023G31KT 06/M01 A2992 RMK A01 T00591006  RH  063%=      5-min Rain = 0
KAHS 190406Z 34017G22KT 06/M01 A2992 RMK A01 T00591007  RH  063%=      5-min Rain = 0
KAHS 190407Z 34016G24KT 06/M01 A2992 RMK A01 T00591006  RH  063%=      5-min Rain = 0
KAHS 190408Z 34023G31KT 06/M01 A2992 RMK A01 T00581007  RH  063%=      5-min Rain = 0
KAHS 190409Z 34022G27KT 06/M01 A2992 RMK A01 T00581009  RH  062%=      5-min Rain = 0
KAHS 190410Z 34026G34KT 06/M01 A2992 RMK A01 T00571010  RH  062%=      5-min Rain = 0
KAHS 190411Z 34030G36KT 06/M01 A2992 RMK A01 T00571011  RH  062%=      5-min Rain = 0
KAHS 190412Z 34028G33KT 06/M01 A2992 RMK A01 T00561012  RH  062%=      5-min Rain = 0
KAHS 190413Z 34028G33KT 06/M01 A2992 RMK A01 T00561012  RH  062%=      5-min Rain = 0
KAHS 190414Z 34026G34KT 06/M01 A2992 RMK A01 T00551012  RH  062%=      5-min Rain = 0
KAHS 190415Z 34026KT 06/M01 A2993 RMK A01 T00551011  RH  062%=      5-min Rain = 0
KAHS 190416Z 34024G31KT 05/M01 A2993 RMK A01 T00541012  RH  063%=      5-min Rain = 0
KAHS 190417Z 34025KT 05/M01 A2993 RMK A01 T00541011  RH  063%=      5-min Rain = 0
KAHS 190418Z 34024G31KT 05/M01 A2993 RMK A01 T00531011  RH  063%=      5-min Rain = 0
KAHS 190419Z 34026G31KT 05/M01 A2993 RMK A01 T00531011  RH  063%=      5-min Rain = 0
KAHS 190420Z 34023G29KT 05/M01 A2993 RMK A01 T00531011  RH  063%=      5-min Rain = 0
KAHS 190421Z 34019G29KT 05/M01 A2993 RMK A01 T00531011  RH  063%=      5-min Rain = 0
KAHS 190422Z 33018KT 05/M01 A2993 RMK A01 T00531011  RH  063%=      5-min Rain = 0
KAHS 190423Z 33023KT 05/M01 A2993 RMK A01 T00531010  RH  063%=      5-min Rain = 0
KAHS 190424Z 34018KT 05/M01 A2993 RMK A01 T00531010  RH  063%=      5-min Rain = 0
KAHS 190425Z 33022G28KT 05/M01 A2993 RMK A01 T00541010  RH  063%=      5-min Rain = 0
KAHS 190426Z 34019KT 05/M01 A2994 RMK A01 T00541010  RH  063%=      5-min Rain = 0
KAHS 190427Z 34018G24KT 05/M01 A2994 RMK A01 T00541010  RH  063%=      5-min Rain = 0
KAHS 190428Z 34019G24KT 05/M01 A2994 RMK A01 T00541009  RH  064%=      5-min Rain = 0
KAHS 190429Z 34019G26KT 05/M01 A2994 RMK A01 T00541010  RH  063%=      5-min Rain = 0
KAHS 190430Z 34018G23KT 05/M01 A2994 RMK A01 T00541010  RH  063%=      5-min Rain = 0
KAHS 190431Z 34021G27KT 05/M01 A2994 RMK A01 T00541010  RH  063%=      5-min Rain = 0
KAHS 190432Z 34019KT 05/M01 A2994 RMK A01 T00541010  RH  063%=      5-min Rain = 0
KAHS 190433Z 35019G24KT 05/M01 A2995 RMK A01 T00541011  RH  063%=      5-min Rain = 0
KAHS 190434Z 34025G32KT 05/M01 A2994 RMK A01 T00541012  RH  062%=      5-min Rain = 0
KAHS 190435Z 34030G36KT 05/M01 A2994 RMK A01 T00541014  RH  062%=      5-min Rain = 0
KAHS 190436Z 34028G36KT 05/M02 A2994 RMK A01 T00531015  RH  061%=      5-min Rain = 0
KAHS 190437Z 35022G30KT 05/M02 A2994 RMK A01 T00531015  RH  061%=      5-min Rain = 0
KAHS 190438Z 34022G28KT 05/M02 A2995 RMK A01 T00531015  RH  061%=      5-min Rain = 0
KAHS 190439Z 35022G29KT 05/M02 A2995 RMK A01 T00531015  RH  061%=      5-min Rain = 0
KAHS 190440Z 34021G27KT 05/M02 A2995 RMK A01 T00531015  RH  061%=      5-min Rain = 0
KAHS 190441Z 34022G29KT 05/M02 A2995 RMK A01 T00531016  RH  061%=      5-min Rain = 0
KAHS 190442Z 34023G30KT 05/M02 A2995 RMK A01 T00531016  RH  061%=      5-min Rain = 0
KAHS 190443Z 34023G29KT 05/M02 A2995 RMK A01 T00531017  RH  061%=      5-min Rain = 0
KAHS 190444Z 34025KT 05/M02 A2995 RMK A01 T00531017  RH  060%=      5-min Rain = 0
KAHS 190445Z 33024G31KT 05/M02 A2995 RMK A01 T00531017  RH  060%=      5-min Rain = 0
KAHS 190446Z 34021KT 05/M02 A2995 RMK A01 T00531017  RH  060%=      5-min Rain = 0
KAHS 190447Z 35019KT 05/M02 A2995 RMK A01 T00531017  RH  060%=      5-min Rain = 0
KAHS 190448Z 35021KT 05/M02 A2995 RMK A01 T00531017  RH  060%=      5-min Rain = 0
KAHS 190449Z 34018KT 05/M02 A2996 RMK A01 T00531017  RH  060%=      5-min Rain = 0
KAHS 190450Z 35015KT 05/M02 A2996 RMK A01 T00531017  RH  060%=      5-min Rain = 0
KAHS 190451Z 34018G25KT 05/M02 A2996 RMK A01 T00541017  RH  060%=      5-min Rain = 0
KAHS 190452Z 34024G32KT 05/M02 A2996 RMK A01 T00531018  RH  060%=      5-min Rain = 0
KAHS 190453Z 35025G32KT 05/M02 A2996 RMK A01 T00531019  RH  060%=      5-min Rain = 0
KAHS 190454Z 34025G30KT 05/M02 A2996 RMK A01 T00531019  RH  059%=      5-min Rain = 0
KAHS 190455Z 35022KT 05/M02 A2996 RMK A01 T00531019  RH  059%=      5-min Rain = 0
KAHS 190456Z 35023G29KT 05/M02 A2996 RMK A01 T00531019  RH  059%=      5-min Rain = 0
KAHS 190457Z 34024G31KT 05/M02 A2996 RMK A01 T00531019  RH  060%=      5-min Rain = 0
KAHS 190458Z 34024G29KT 05/M02 A2996 RMK A01 T00531020  RH  059%=      5-min Rain = 0
KAHS 190459Z 35024G29KT 05/M02 A2997 RMK A01 T00531020  RH  059%=      5-min Rain = 0
KAHS 190500Z 34019G24KT 05/M02 A2997 RMK A01 T00531020  RH  060%=      5-min Rain = 0
KAHS 190501Z 35018G24KT 05/M02 A2997 RMK A01 T00531019  RH  060%=      5-min Rain = 0
KAHS 190502Z 34017KT 05/M02 A2997 RMK A01 T00531019  RH  060%=      5-min Rain = 0
KAHS 190503Z 34021KT 05/M02 A2997 RMK A01 T00531019  RH  060%=      5-min Rain = 0
KAHS 190504Z 34025G33KT 05/M02 A2997 RMK A01 T00521020  RH  060%=      5-min Rain = 0
KAHS 190505Z 34026G31KT 05/M02 A2997 RMK A01 T00521020  RH  060%=      5-min Rain = 0
KAHS 190506Z 34028G34KT 05/M02 A2997 RMK A01 T00511021  RH  060%=      5-min Rain = 0
KAHS 190507Z 34026G31KT 05/M02 A2997 RMK A01 T00511022  RH  059%=      5-min Rain = 0
KAHS 190508Z 34020G25KT 05/M02 A2998 RMK A01 T00511021  RH  060%=      5-min Rain = 0
KAHS 190509Z 34018G23KT 05/M02 A2998 RMK A01 T00511021  RH  060%=      5-min Rain = 0
KAHS 190510Z 34018KT 05/M02 A2998 RMK A01 T00511020  RH  060%=      5-min Rain = 0
KAHS 190511Z 34019KT 05/M02 A2998 RMK A01 T00511021  RH  060%=      5-min Rain = 0
KAHS 190512Z 34021G27KT 05/M02 A2998 RMK A01 T00511021  RH  060%=      5-min Rain = 0
KAHS 190513Z 34017KT 05/M02 A2998 RMK A01 T00511021  RH  060%=      5-min Rain = 0
KAHS 190514Z 35018G26KT 05/M02 A2998 RMK A01 T00501021  RH  060%=      5-min Rain = 0
KAHS 190515Z 35024G32KT 05/M02 A2998 RMK A01 T00501022  RH  060%=      5-min Rain = 0
KAHS 190516Z 34028G38KT 05/M02 A2998 RMK A01 T00501022  RH  059%=      5-min Rain = 0
KAHS 190517Z 35024G29KT 05/M02 A2998 RMK A01 T00501022  RH  059%=      5-min Rain = 0
KAHS 190518Z 34027G36KT 05/M02 A2998 RMK A01 T00501023  RH  059%=      5-min Rain = 0
KAHS 190519Z 34026KT 05/M02 A2998 RMK A01 T00501023  RH  059%=      5-min Rain = 0
KAHS 190520Z 34026G31KT 05/M02 A2998 RMK A01 T00501023  RH  059%=      5-min Rain = 0
KAHS 190521Z 34027G34KT 05/M02 A2998 RMK A01 T00491024  RH  059%=      5-min Rain = 0
KAHS 190522Z 35021KT 05/M02 A2999 RMK A01 T00491023  RH  059%=      5-min Rain = 0
KAHS 190523Z 34025G34KT 05/M02 A2999 RMK A01 T00491023  RH  059%=      5-min Rain = 0
KAHS 190524Z 34024G31KT 05/M02 A2999 RMK A01 T00491024  RH  059%=      5-min Rain = 0
KAHS 190525Z 34025G33KT 05/M02 A2999 RMK A01 T00491024  RH  059%=      5-min Rain = 0
KAHS 190526Z 34024G31KT 05/M02 A2999 RMK A01 T00491024  RH  059%=      5-min Rain = 0
KAHS 190527Z 34022G28KT 05/M02 A2999 RMK A01 T00491024  RH  059%=      5-min Rain = 0
KAHS 190528Z 34021G28KT 05/M02 A2999 RMK A01 T00491024  RH  059%=      5-min Rain = 0
KAHS 190529Z 34023G28KT 05/M02 A2999 RMK A01 T00491024  RH  059%=      5-min Rain = 0
KAHS 190530Z 34022KT 05/M02 A2999 RMK A01 T00481024  RH  059%=      5-min Rain = 0
KAHS 190531Z 34019G24KT 05/M02 A30 RMK A01 T00481024  RH  059%=      5-min Rain = 0
KAHS 190532Z 34021KT 05/M03 A30 RMK A01 T00481025  RH  059%=      5-min Rain = 0
KAHS 190533Z 34028KT 05/M03 A30 RMK A01 T00481025  RH  059%=      5-min Rain = 0
KAHS 190534Z 34024G32KT 05/M03 A30 RMK A01 T00481026  RH  059%=      5-min Rain = 0
KAHS 190535Z 34023G28KT 05/M03 A30 RMK A01 T00481025  RH  059%=      5-min Rain = 0
KAHS 190536Z 34023G28KT 05/M03 A30 RMK A01 T00481025  RH  059%=      5-min Rain = 0
KAHS 190537Z 34019KT 05/M03 A30 RMK A01 T00481025  RH  059%=      5-min Rain = 0
KAHS 190538Z 34018G24KT 05/M03 A30 RMK A01 T00481025  RH  059%=      5-min Rain = 0
KAHS 190539Z 34021G26KT 05/M03 A30 RMK A01 T00481025  RH  059%=      5-min Rain = 0
KAHS 190540Z 34021G26KT 05/M03 A30 RMK A01 T00481026  RH  059%=      5-min Rain = 0
KAHS 190541Z 34016KT 05/M03 A30 RMK A01 T00471026  RH  059%=      5-min Rain = 0
KAHS 190542Z 34015KT 05/M03 A3001 RMK A01 T00481025  RH  059%=      5-min Rain = 0
KAHS 190543Z 34020G26KT 05/M03 A30 RMK A01 T00481025  RH  059%=      5-min Rain = 0
KAHS 190544Z 34022KT 05/M03 A30 RMK A01 T00481026  RH  059%=      5-min Rain = 0
KAHS 190545Z 34020G26KT 05/M03 A30 RMK A01 T00481026  RH  059%=      5-min Rain = 0
KAHS 190546Z 34017G24KT 05/M03 A3001 RMK A01 T00481025  RH  059%=      5-min Rain = 0
KAHS 190547Z 34020KT 05/M03 A3001 RMK A01 T00481025  RH  059%=      5-min Rain = 0
KAHS 190548Z 34020G26KT 05/M03 A3001 RMK A01 T00481025  RH  059%=      5-min Rain = 0
KAHS 190549Z 34024KT 05/M02 A3001 RMK A01 T00481024  RH  060%=      5-min Rain = 0
KAHS 190550Z 34022KT 05/M02 A3001 RMK A01 T00481024  RH  060%=      5-min Rain = 0
KAHS 190551Z 34024G29KT 05/M02 A3001 RMK A01 T00481024  RH  060%=      5-min Rain = 0
KAHS 190552Z 34021G28KT 05/M02 A3001 RMK A01 T00481024  RH  060%=      5-min Rain = 0
KAHS 190553Z 34019KT 05/M02 A3001 RMK A01 T00481023  RH  060%=      5-min Rain = 0
KAHS 190554Z 33023G29KT 05/M02 A3001 RMK A01 T00481023  RH  060%=      5-min Rain = 0
KAHS 190555Z 34023G29KT 05/M02 A3001 RMK A01 T00481023  RH  060%=      5-min Rain = 0
KAHS 190556Z 33019KT 05/M02 A3002 RMK A01 T00481022  RH  060%=      5-min Rain = 0
KAHS 190557Z 33018G24KT 05/M02 A3002 RMK A01 T00471022  RH  061%=      5-min Rain = 0
KAHS 190558Z 34018G27KT 05/M02 A3002 RMK A01 T00471022  RH  061%=      5-min Rain = 0
KAHS 190559Z 34021G27KT 05/M02 A3002 RMK A01 T00471021  RH  061%=      5-min Rain = 0

Page generated in 0.0801 seconds.